Time,TemperatureF,DewpointF,PressureIn,WindDirection,WindDirectionDegrees,WindSpeedMPH,WindSpeedGustMPH,Humidity,HourlyPrecipIn,Conditions,Clouds,dailyrainin,SoftwareType,DateUTC
2013-10-27 00:01:00,35.4,22.1,28.85,WNW,292,2.3,2.3,58,0.00,CLR,,0.00,WeatherDisplay:10.37,2013-10-27 05:01:00,
2013-10-27 00:02:00,35.2,21.5,28.85,WNW,292,2.3,2.3,57,0.00,CLR,,0.00,WeatherDisplay:10.37,2013-10-27 05:02:00,
2013-10-27 00:03:00,35.2,21.9,28.85,WNW,292,2.4,2.4,58,0.00,CLR,,0.00,WeatherDisplay:10.37,2013-10-27 05:03:00,
2013-10-27 00:04:00,35.1,21.8,28.85,WNW,292,2.3,2.3,58,0.00,CLR,,0.00,WeatherDisplay:10.37,2013-10-27 05:04:00,
2013-10-27 00:07:00,35.1,22.6,28.85,WNW,292,1.2,1.2,60,0.00,CLR,,0.00,WeatherDisplay:10.37,2013-10-27 05:07:00,
2013-10-27 00:08:00,34.9,22.4,28.85,WNW,292,1.4,1.4,60,0.00,CLR,,0.00,WeatherDisplay:10.37,2013-10-27 05:08:00,
2013-10-27 00:09:00,34.7,22.2,28.85,WNW,292,1.2,0.0,60,0.00,CLR,,0.00,WeatherDisplay:10.37,2013-10-27 05:09:00,
2013-10-27 00:12:00,34.3,21.9,28.85,WNW,292,0.0,0.0,60,0.00,CLR,,0.00,WeatherDisplay:10.37,2013-10-27 05:12:00,
2013-10-27 00:13:00,34.3,22.3,28.85,WNW,292,0.0,0.0,61,0.00,CLR,,0.00,WeatherDisplay:10.37,2013-10-27 05:13:00,
2013-10-27 00:14:00,34.3,22.3,28.85,WNW,292,0.0,0.0,61,0.00,CLR,,0.00,WeatherDisplay:10.37,2013-10-27 05:14:00,
2013-10-27 00:15:00,34.2,22.9,28.85,WNW,292,0.0,0.0,63,0.00,CLR,,0.00,WeatherDisplay:10.37,2013-10-27 05:15:00,
2013-10-27 00:17:00,34.0,22.3,28.85,WNW,292,2.3,2.3,62,0.00,CLR,,0.00,WeatherDisplay:10.37,2013-10-27 05:17:00,
2013-10-27 00:18:00,33.8,22.1,28.85,WNW,292,2.3,2.3,62,0.00,CLR,,0.00,WeatherDisplay:10.37,2013-10-27 05:18:00,
2013-10-27 00:19:00,33.8,22.1,28.85,WNW,292,2.3,2.3,62,0.00,CLR,,0.00,WeatherDisplay:10.37,2013-10-27 05:19:00,
2013-10-27 00:20:00,33.6,22.0,28.85,WNW,292,1.4,1.4,62,0.00,CLR,,0.00,WeatherDisplay:10.37,2013-10-27 05:20:00,
2013-10-27 00:22:00,33.6,22.0,28.85,WNW,292,1.2,0.0,62,0.00,CLR,,0.00,WeatherDisplay:10.37,2013-10-27 05:22:00,
2013-10-27 00:23:00,33.6,22.0,28.85,WNW,292,1.2,0.0,62,0.00,CLR,,0.00,WeatherDisplay:10.37,2013-10-27 05:23:00,
2013-10-27 00:24:00,33.4,22.2,28.85,WNW,292,1.4,0.0,63,0.00,CLR,,0.00,WeatherDisplay:10.37,2013-10-27 05:24:00,
2013-10-27 00:25:00,33.3,22.0,28.85,WNW,292,1.2,1.2,63,0.00,CLR,,0.00,WeatherDisplay:10.37,2013-10-27 05:25:00,
2013-10-27 00:28:00,33.3,22.0,28.85,WNW,292,0.0,0.0,63,0.00,CLR,,0.00,WeatherDisplay:10.37,2013-10-27 05:28:00,
2013-10-27 00:29:00,33.3,22.0,28.85,WNW,292,0.0,0.0,63,0.00,CLR,,0.00,WeatherDisplay:10.37,2013-10-27 05:29:00,
2013-10-27 00:30:00,33.1,21.8,28.85,WNW,292,0.0,0.0,63,0.00,CLR,,0.00,WeatherDisplay:10.37,2013-10-27 05:30:00,
2013-10-27 00:33:00,32.9,22.0,28.85,WNW,292,0.0,0.0,64,0.00,CLR,,0.00,WeatherDisplay:10.37,2013-10-27 05:33:00,
2013-10-27 00:34:00,32.9,22.0,28.85,WNW,292,0.0,0.0,64,0.00,CLR,,0.00,WeatherDisplay:10.37,2013-10-27 05:34:00,
2013-10-27 00:35:00,32.7,21.9,28.85,WNW,292,0.0,0.0,64,0.00,CLR,,0.00,WeatherDisplay:10.37,2013-10-27 05:35:00,
2013-10-27 00:38:00,32.7,21.9,28.85,SSW,202,0.0,0.0,64,0.00,CLR,,0.00,WeatherDisplay:10.37,2013-10-27 05:38:00,
2013-10-27 00:39:00,32.5,21.7,28.85,SSW,202,0.0,0.0,64,0.00,CLR,,0.00,WeatherDisplay:10.37,2013-10-27 05:39:00,
2013-10-27 00:41:00,32.5,22.1,28.82,SSW,202,0.0,0.0,65,0.00,CLR,,0.00,WeatherDisplay:10.37,2013-10-27 05:41:00,
2013-10-27 00:43:00,32.4,21.9,28.82,SSW,202,0.0,0.0,65,0.00,CLR,,0.00,WeatherDisplay:10.37,2013-10-27 05:43:00,
2013-10-27 00:44:00,32.4,21.9,28.82,SSW,202,0.0,0.0,65,0.00,CLR,,0.00,WeatherDisplay:10.37,2013-10-27 05:44:00,
2013-10-27 00:45:00,32.4,21.9,28.82,SSW,202,0.0,0.0,65,0.00,CLR,,0.00,WeatherDisplay:10.37,2013-10-27 05:45:00,
2013-10-27 00:46:00,32.2,22.1,28.82,SW,225,0.0,0.0,66,0.00,CLR,,0.00,WeatherDisplay:10.37,2013-10-27 05:46:00,
2013-10-27 00:48:00,32.0,21.6,28.82,SW,225,0.0,0.0,65,0.00,CLR,,0.00,WeatherDisplay:10.37,2013-10-27 05:48:00,
2013-10-27 00:49:00,31.8,21.7,28.82,WSW,248,0.0,0.0,66,0.00,CLR,,0.00,WeatherDisplay:10.37,2013-10-27 05:49:00,
2013-10-27 00:50:00,31.6,21.2,28.82,WNW,292,0.0,0.0,65,0.00,CLR,,0.00,WeatherDisplay:10.37,2013-10-27 05:50:00,
2013-10-27 00:51:00,31.6,21.2,28.82,WNW,292,0.0,0.0,65,0.00,CLR,,0.00,WeatherDisplay:10.37,2013-10-27 05:51:00,
2013-10-27 00:54:00,31.3,21.6,28.82,WNW,292,0.0,0.0,67,0.00,CLR,,0.00,WeatherDisplay:10.37,2013-10-27 05:54:00,
2013-10-27 00:56:00,31.1,21.4,28.85,WNW,292,0.0,0.0,67,0.00,CLR,,0.00,WeatherDisplay:10.37,2013-10-27 05:56:00,
2013-10-27 00:59:00,30.9,21.6,28.85,WNW,292,0.0,0.0,68,0.00,CLR,,0.00,WeatherDisplay:10.37,2013-10-27 05:59:00,
2013-10-27 01:00:00,30.7,21.4,28.85,WNW,292,0.0,0.0,68,0.00,CLR,,0.00,WeatherDisplay:10.37,2013-10-27 06:00:00,
2013-10-27 01:01:00,30.6,21.6,28.85,WNW,292,0.0,0.0,69,0.00,CLR,,0.00,WeatherDisplay:10.37,2013-10-27 06:01:00,
2013-10-27 01:04:00,30.6,21.2,28.85,WNW,292,0.0,0.0,68,0.00,CLR,,0.00,WeatherDisplay:10.37,2013-10-27 06:04:00,
2013-10-27 01:05:00,30.6,21.6,28.85,WNW,292,0.0,0.0,69,0.00,CLR,,0.00,WeatherDisplay:10.37,2013-10-27 06:05:00,
2013-10-27 01:06:00,30.6,21.6,28.85,WNW,292,0.0,0.0,69,0.00,CLR,,0.00,WeatherDisplay:10.37,2013-10-27 06:06:00,
2013-10-27 01:09:00,30.2,20.9,28.82,WNW,292,0.0,0.0,68,0.00,CLR,,0.00,WeatherDisplay:10.37,2013-10-27 06:09:00,
2013-10-27 01:10:00,30.2,21.2,28.82,WNW,292,0.0,0.0,69,0.00,CLR,,0.00,WeatherDisplay:10.37,2013-10-27 06:10:00,
2013-10-27 01:11:00,30.2,21.6,28.82,WNW,292,0.0,0.0,70,0.00,CLR,,0.00,WeatherDisplay:10.37,2013-10-27 06:11:00,
2013-10-27 01:12:00,30.0,21.4,28.82,WNW,292,0.0,0.0,70,0.00,CLR,,0.00,WeatherDisplay:10.37,2013-10-27 06:12:00,
2013-10-27 01:14:00,29.8,21.2,28.82,WNW,292,0.0,0.0,70,0.00,CLR,,0.00,WeatherDisplay:10.37,2013-10-27 06:14:00,
2013-10-27 01:15:00,29.8,21.2,28.82,WNW,292,0.0,0.0,70,0.00,CLR,,0.00,WeatherDisplay:10.37,2013-10-27 06:15:00,
2013-10-27 01:16:00,29.8,21.6,28.82,WNW,292,0.0,0.0,71,0.00,CLR,,0.00,WeatherDisplay:10.37,2013-10-27 06:16:00,
2013-10-27 01:17:00,29.7,21.4,28.82,WNW,292,0.0,0.0,71,0.00,CLR,,0.00,WeatherDisplay:10.37,2013-10-27 06:17:00,
2013-10-27 01:18:00,29.7,21.4,28.82,WNW,292,0.0,0.0,71,0.00,CLR,,0.00,WeatherDisplay:10.37,2013-10-27 06:18:00,
2013-10-27 01:19:00,29.7,21.1,28.82,WNW,292,0.0,0.0,70,0.00,CLR,,0.00,WeatherDisplay:10.37,2013-10-27 06:19:00,
2013-10-27 01:20:00,29.7,21.4,28.82,WNW,292,0.0,0.0,71,0.00,CLR,,0.00,WeatherDisplay:10.37,2013-10-27 06:20:00,
2013-10-27 01:22:00,29.7,21.4,28.82,WNW,292,0.0,0.0,71,0.00,CLR,,0.00,WeatherDisplay:10.37,2013-10-27 06:22:00,
2013-10-27 01:23:00,29.7,21.7,28.82,WNW,292,0.0,0.0,72,0.00,CLR,,0.00,WeatherDisplay:10.37,2013-10-27 06:23:00,
2013-10-27 01:25:00,29.5,21.2,28.82,WNW,292,0.0,0.0,71,0.00,CLR,,0.00,WeatherDisplay:10.37,2013-10-27 06:25:00,
2013-10-27 01:26:00,29.5,20.9,28.82,WNW,292,0.0,0.0,70,0.00,CLR,,0.00,WeatherDisplay:10.37,2013-10-27 06:26:00,
2013-10-27 01:27:00,29.5,20.9,28.82,WNW,292,0.0,0.0,70,0.00,CLR,,0.00,WeatherDisplay:10.37,2013-10-27 06:27:00,
2013-10-27 01:29:00,29.5,21.2,28.82,WNW,292,0.0,0.0,71,0.00,CLR,,0.00,WeatherDisplay:10.37,2013-10-27 06:29:00,
2013-10-27 01:30:00,29.5,21.2,28.82,WNW,292,0.0,0.0,71,0.00,CLR,,0.00,WeatherDisplay:10.37,2013-10-27 06:30:00,
2013-10-27 01:32:00,29.3,21.1,28.82,WNW,292,0.0,0.0,71,0.00,CLR,,0.00,WeatherDisplay:10.37,2013-10-27 06:32:00,
2013-10-27 01:33:00,29.1,21.2,28.82,WNW,292,0.0,0.0,72,0.00,CLR,,0.00,WeatherDisplay:10.37,2013-10-27 06:33:00,
2013-10-27 01:34:00,28.9,21.0,28.82,WNW,292,0.0,0.0,72,0.00,CLR,,0.00,WeatherDisplay:10.37,2013-10-27 06:34:00,
2013-10-27 01:35:00,28.9,20.7,28.82,WNW,292,0.0,0.0,71,0.00,CLR,,0.00,WeatherDisplay:10.37,2013-10-27 06:35:00,
2013-10-27 01:37:00,28.8,20.5,28.82,WNW,292,1.6,1.6,71,0.00,CLR,,0.00,WeatherDisplay:10.37,2013-10-27 06:37:00,
2013-10-27 01:38:00,28.8,20.5,28.82,WNW,292,1.4,1.4,71,0.00,CLR,,0.00,WeatherDisplay:10.37,2013-10-27 06:38:00,
2013-10-27 01:39:00,28.6,20.4,28.82,WNW,292,1.2,1.4,71,0.00,CLR,,0.00,WeatherDisplay:10.37,2013-10-27 06:39:00,
2013-10-27 01:41:00,28.6,20.4,28.79,WNW,292,1.2,0.0,71,0.00,CLR,,0.00,WeatherDisplay:10.37,2013-10-27 06:41:00,
2013-10-27 01:43:00,28.6,20.7,28.79,WNW,292,0.0,0.0,72,0.00,CLR,,0.00,WeatherDisplay:10.37,2013-10-27 06:43:00,
2013-10-27 01:44:00,28.4,20.8,28.79,WNW,292,0.0,0.0,73,0.00,CLR,,0.00,WeatherDisplay:10.37,2013-10-27 06:44:00,
2013-10-27 01:46:00,28.4,20.8,28.79,WNW,292,0.0,0.0,73,0.00,CLR,,0.00,WeatherDisplay:10.37,2013-10-27 06:46:00,
2013-10-27 01:48:00,28.2,21.0,28.79,WNW,292,0.0,0.0,74,0.00,CLR,,0.00,WeatherDisplay:10.37,2013-10-27 06:48:00,
2013-10-27 01:49:00,28.2,21.0,28.79,WNW,292,0.0,0.0,74,0.00,CLR,,0.00,WeatherDisplay:10.37,2013-10-27 06:49:00,
2013-10-27 01:51:00,28.2,21.0,28.79,WNW,292,0.0,0.0,74,0.00,CLR,,0.00,WeatherDisplay:10.37,2013-10-27 06:51:00,
2013-10-27 01:53:00,28.2,21.0,28.79,WNW,292,0.0,0.0,74,0.00,CLR,,0.00,WeatherDisplay:10.37,2013-10-27 06:53:00,
2013-10-27 01:54:00,28.0,20.8,28.79,WNW,292,0.0,0.0,74,0.00,CLR,,0.00,WeatherDisplay:10.37,2013-10-27 06:54:00,
2013-10-27 01:55:00,28.0,20.8,28.79,WNW,292,0.0,0.0,74,0.00,CLR,,0.00,WeatherDisplay:10.37,2013-10-27 06:55:00,
2013-10-27 01:56:00,28.0,20.8,28.79,WNW,292,0.0,0.0,74,0.00,CLR,,0.00,WeatherDisplay:10.37,2013-10-27 06:56:00,
2013-10-27 01:58:00,28.0,20.5,28.79,WNW,292,0.0,0.0,73,0.00,CLR,,0.00,WeatherDisplay:10.37,2013-10-27 06:58:00,
2013-10-27 01:59:00,28.0,20.5,28.79,WNW,292,0.0,0.0,73,0.00,CLR,,0.00,WeatherDisplay:10.37,2013-10-27 06:59:00,
2013-10-27 02:00:00,28.0,20.5,28.79,WNW,292,0.0,0.0,73,0.00,CLR,,0.00,WeatherDisplay:10.37,2013-10-27 07:00:00,
2013-10-27 02:01:00,27.9,20.6,28.79,WNW,292,0.0,0.0,74,0.00,CLR,,0.00,WeatherDisplay:10.37,2013-10-27 07:01:00,
2013-10-27 02:03:00,27.9,20.6,28.79,WNW,292,0.0,0.0,74,0.00,CLR,,0.00,WeatherDisplay:10.37,2013-10-27 07:03:00,
2013-10-27 02:05:00,27.9,20.6,28.79,WNW,292,0.0,0.0,74,0.00,CLR,,0.00,WeatherDisplay:10.37,2013-10-27 07:05:00,
2013-10-27 02:06:00,27.7,20.8,28.79,WNW,292,0.0,0.0,75,0.00,CLR,,0.00,WeatherDisplay:10.37,2013-10-27 07:06:00,
2013-10-27 02:08:00,27.5,20.3,28.79,WNW,292,0.0,0.0,74,0.00,CLR,,0.00,WeatherDisplay:10.37,2013-10-27 07:08:00,
2013-10-27 02:09:00,27.5,20.3,28.79,WNW,292,0.0,0.0,74,0.00,CLR,,0.00,WeatherDisplay:10.37,2013-10-27 07:09:00,
2013-10-27 02:10:00,27.5,20.6,28.79,WNW,292,0.0,0.0,75,0.00,CLR,,0.00,WeatherDisplay:10.37,2013-10-27 07:10:00,
2013-10-27 02:11:00,27.3,20.4,28.79,WNW,292,0.0,0.0,75,0.00,CLR,,0.00,WeatherDisplay:10.37,2013-10-27 07:11:00,
2013-10-27 02:13:00,27.1,20.3,28.79,WNW,292,0.0,0.0,75,0.00,CLR,,0.00,WeatherDisplay:10.37,2013-10-27 07:13:00,
2013-10-27 02:14:00,27.1,20.3,28.79,WNW,292,0.0,0.0,75,0.00,CLR,,0.00,WeatherDisplay:10.37,2013-10-27 07:14:00,
2013-10-27 02:15:00,27.1,20.3,28.79,WNW,292,0.0,0.0,75,0.00,CLR,,0.00,WeatherDisplay:10.37,2013-10-27 07:15:00,
2013-10-27 02:16:00,27.1,20.3,28.79,WNW,292,0.0,0.0,75,0.00,CLR,,0.00,WeatherDisplay:10.37,2013-10-27 07:16:00,
2013-10-27 02:17:00,27.0,20.1,28.79,WNW,292,0.0,0.0,75,0.00,CLR,,0.00,WeatherDisplay:10.37,2013-10-27 07:17:00,
2013-10-27 02:19:00,27.0,19.8,28.79,WNW,292,0.0,0.0,74,0.00,CLR,,0.00,WeatherDisplay:10.37,2013-10-27 07:19:00,
2013-10-27 02:21:00,27.0,20.1,28.79,WNW,292,0.0,0.0,75,0.00,CLR,,0.00,WeatherDisplay:10.37,2013-10-27 07:21:00,
2013-10-27 02:22:00,27.0,20.1,28.79,WNW,292,0.0,0.0,75,0.00,CLR,,0.00,WeatherDisplay:10.37,2013-10-27 07:22:00,
2013-10-27 02:24:00,27.1,20.3,28.79,WNW,292,0.0,0.0,75,0.00,CLR,,0.00,WeatherDisplay:10.37,2013-10-27 07:24:00,
2013-10-27 02:25:00,27.1,20.3,28.79,WNW,292,0.0,0.0,75,0.00,CLR,,0.00,WeatherDisplay:10.37,2013-10-27 07:25:00,
2013-10-27 02:26:00,27.0,20.1,28.79,WNW,292,0.0,0.0,75,0.00,CLR,,0.00,WeatherDisplay:10.37,2013-10-27 07:26:00,
2013-10-27 02:27:00,27.0,20.4,28.79,WNW,292,0.0,0.0,76,0.00,CLR,,0.00,WeatherDisplay:10.37,2013-10-27 07:27:00,
2013-10-27 02:28:00,27.0,20.4,28.79,WNW,292,0.0,0.0,76,0.00,CLR,,0.00,WeatherDisplay:10.37,2013-10-27 07:28:00,
2013-10-27 02:30:00,27.0,20.1,28.79,WNW,292,0.0,0.0,75,0.00,CLR,,0.00,WeatherDisplay:10.37,2013-10-27 07:30:00,
2013-10-27 02:31:00,26.8,20.2,28.79,WNW,292,0.0,0.0,76,0.00,CLR,,0.00,WeatherDisplay:10.37,2013-10-27 07:31:00,
2013-10-27 02:32:00,26.8,20.2,28.79,WNW,292,0.0,0.0,76,0.00,CLR,,0.00,WeatherDisplay:10.37,2013-10-27 07:32:00,
2013-10-27 02:33:00,26.8,20.2,28.79,WNW,292,0.0,0.0,76,0.00,CLR,,0.00,WeatherDisplay:10.37,2013-10-27 07:33:00,
2013-10-27 02:35:00,26.8,20.2,28.79,WNW,292,0.0,0.0,76,0.00,CLR,,0.00,WeatherDisplay:10.37,2013-10-27 07:35:00,
2013-10-27 02:36:00,26.8,20.2,28.79,WNW,292,0.0,0.0,76,0.00,CLR,,0.00,WeatherDisplay:10.37,2013-10-27 07:36:00,
2013-10-27 02:37:00,26.8,20.2,28.79,WNW,292,0.0,0.0,76,0.00,CLR,,0.00,WeatherDisplay:10.37,2013-10-27 07:37:00,
2013-10-27 02:38:00,26.6,20.4,28.79,WNW,292,0.0,0.0,77,0.00,CLR,,0.00,WeatherDisplay:10.37,2013-10-27 07:38:00,
2013-10-27 02:40:00,26.6,20.4,28.79,WNW,292,0.0,0.0,77,0.00,CLR,,0.00,WeatherDisplay:10.37,2013-10-27 07:40:00,
2013-10-27 02:42:00,26.6,20.4,28.79,WNW,292,0.0,0.0,77,0.00,CLR,,0.00,WeatherDisplay:10.37,2013-10-27 07:42:00,
2013-10-27 02:43:00,26.6,20.4,28.79,WNW,292,0.0,0.0,77,0.00,CLR,,0.00,WeatherDisplay:10.37,2013-10-27 07:43:00,
2013-10-27 02:45:00,26.6,20.4,28.79,WNW,292,0.0,0.0,77,0.00,CLR,,0.00,WeatherDisplay:10.37,2013-10-27 07:45:00,
2013-10-27 02:47:00,26.6,20.4,28.79,WNW,292,0.0,0.0,77,0.00,CLR,,0.00,WeatherDisplay:10.37,2013-10-27 07:47:00,
2013-10-27 02:48:00,26.6,20.4,28.79,WNW,292,0.0,0.0,77,0.00,CLR,,0.00,WeatherDisplay:10.37,2013-10-27 07:48:00,
2013-10-27 02:50:00,26.4,20.2,28.79,WNW,292,0.0,0.0,77,0.00,CLR,,0.00,WeatherDisplay:10.37,2013-10-27 07:50:00,
2013-10-27 02:52:00,26.4,20.2,28.79,WNW,292,0.0,0.0,77,0.00,CLR,,0.00,WeatherDisplay:10.37,2013-10-27 07:52:00,
2013-10-27 02:53:00,26.4,20.2,28.79,WNW,292,0.0,0.0,77,0.00,CLR,,0.00,WeatherDisplay:10.37,2013-10-27 07:53:00,
2013-10-27 02:55:00,26.2,20.0,28.79,WNW,292,0.0,0.0,77,0.00,CLR,,0.00,WeatherDisplay:10.37,2013-10-27 07:55:00,
2013-10-27 02:57:00,26.1,19.8,28.79,WNW,292,0.0,0.0,77,0.00,CLR,,0.00,WeatherDisplay:10.37,2013-10-27 07:57:00,
2013-10-27 02:58:00,26.1,19.8,28.79,WNW,292,0.0,0.0,77,0.00,CLR,,0.00,WeatherDisplay:10.37,2013-10-27 07:58:00,
2013-10-27 02:59:00,26.1,19.8,28.79,WNW,292,0.0,0.0,77,0.00,CLR,,0.00,WeatherDisplay:10.37,2013-10-27 07:59:00,
2013-10-27 03:01:00,26.2,20.0,28.79,WNW,292,0.0,0.0,77,0.00,CLR,,0.00,WeatherDisplay:10.37,2013-10-27 08:01:00,
2013-10-27 03:03:00,26.1,20.1,28.79,WNW,292,0.0,0.0,78,0.00,CLR,,0.00,WeatherDisplay:10.37,2013-10-27 08:03:00,
2013-10-27 03:04:00,26.1,20.1,28.79,WNW,292,0.0,0.0,78,0.00,CLR,,0.00,WeatherDisplay:10.37,2013-10-27 08:04:00,
2013-10-27 03:05:00,26.1,19.8,28.79,WNW,292,0.0,0.0,77,0.00,CLR,,0.00,WeatherDisplay:10.37,2013-10-27 08:05:00,
2013-10-27 03:06:00,26.1,19.8,28.79,WNW,292,0.0,0.0,77,0.00,CLR,,0.00,WeatherDisplay:10.37,2013-10-27 08:06:00,
2013-10-27 03:08:00,26.1,20.1,28.79,WNW,292,0.0,0.0,78,0.00,CLR,,0.00,WeatherDisplay:10.37,2013-10-27 08:08:00,
2013-10-27 03:10:00,26.1,20.1,28.82,WNW,292,0.0,0.0,78,0.00,CLR,,0.00,WeatherDisplay:10.37,2013-10-27 08:10:00,
2013-10-27 03:11:00,26.1,20.1,28.82,WNW,292,0.0,0.0,78,0.00,CLR,,0.00,WeatherDisplay:10.37,2013-10-27 08:11:00,
2013-10-27 03:14:00,26.1,20.1,28.82,WNW,292,0.0,0.0,78,0.00,CLR,,0.00,WeatherDisplay:10.37,2013-10-27 08:14:00,
2013-10-27 03:15:00,26.1,20.1,28.82,WNW,292,0.0,0.0,78,0.00,CLR,,0.00,WeatherDisplay:10.37,2013-10-27 08:15:00,
2013-10-27 03:16:00,26.1,19.8,28.82,WNW,292,0.0,0.0,77,0.00,CLR,,0.00,WeatherDisplay:10.37,2013-10-27 08:16:00,
2013-10-27 03:19:00,26.2,20.0,28.82,WNW,292,0.0,0.0,77,0.00,CLR,,0.00,WeatherDisplay:10.37,2013-10-27 08:19:00,
2013-10-27 03:21:00,26.2,20.3,28.82,WNW,292,0.0,0.0,78,0.00,CLR,,0.00,WeatherDisplay:10.37,2013-10-27 08:21:00,
2013-10-27 03:22:00,26.4,20.5,28.82,WNW,292,0.0,0.0,78,0.00,CLR,,0.00,WeatherDisplay:10.37,2013-10-27 08:22:00,
2013-10-27 03:24:00,26.4,20.5,28.82,WNW,292,0.0,0.0,78,0.00,CLR,,0.00,WeatherDisplay:10.37,2013-10-27 08:24:00,
2013-10-27 03:25:00,26.2,20.3,28.79,WNW,292,0.0,0.0,78,0.00,CLR,,0.00,WeatherDisplay:10.37,2013-10-27 08:25:00,
2013-10-27 03:26:00,26.2,20.3,28.79,WNW,292,0.0,0.0,78,0.00,CLR,,0.00,WeatherDisplay:10.37,2013-10-27 08:26:00,
2013-10-27 03:27:00,26.2,20.3,28.79,WNW,292,0.0,0.0,78,0.00,CLR,,0.00,WeatherDisplay:10.37,2013-10-27 08:27:00,
2013-10-27 03:29:00,26.2,20.3,28.79,WNW,292,0.0,0.0,78,0.00,CLR,,0.00,WeatherDisplay:10.37,2013-10-27 08:29:00,
2013-10-27 03:30:00,26.2,20.3,28.79,WNW,292,0.0,0.0,78,0.00,CLR,,0.00,WeatherDisplay:10.37,2013-10-27 08:30:00,
2013-10-27 03:31:00,26.1,20.1,28.79,WNW,292,0.0,0.0,78,0.00,CLR,,0.00,WeatherDisplay:10.37,2013-10-27 08:31:00,
2013-10-27 03:32:00,26.1,19.8,28.79,WNW,292,0.0,0.0,77,0.00,CLR,,0.00,WeatherDisplay:10.37,2013-10-27 08:32:00,
2013-10-27 03:33:00,26.1,19.8,28.79,WNW,292,0.0,0.0,77,0.00,CLR,,0.00,WeatherDisplay:10.37,2013-10-27 08:33:00,
2013-10-27 03:34:00,26.1,20.1,28.79,WNW,292,0.0,0.0,78,0.00,CLR,,0.00,WeatherDisplay:10.37,2013-10-27 08:34:00,
2013-10-27 03:36:00,25.9,20.0,28.79,WNW,292,0.0,0.0,78,0.00,CLR,,0.00,WeatherDisplay:10.37,2013-10-27 08:36:00,
2013-10-27 03:37:00,25.9,20.0,28.79,WNW,292,0.0,0.0,78,0.00,CLR,,0.00,WeatherDisplay:10.37,2013-10-27 08:37:00,
2013-10-27 03:38:00,25.9,20.0,28.79,WNW,292,0.0,0.0,78,0.00,CLR,,0.00,WeatherDisplay:10.37,2013-10-27 08:38:00,
2013-10-27 03:39:00,25.9,20.0,28.79,WNW,292,0.0,0.0,78,0.00,CLR,,0.00,WeatherDisplay:10.37,2013-10-27 08:39:00,
2013-10-27 03:41:00,25.9,20.0,28.79,WNW,292,0.0,0.0,78,0.00,CLR,,0.00,WeatherDisplay:10.37,2013-10-27 08:41:00,
2013-10-27 03:42:00,25.7,19.8,28.79,WNW,292,0.0,0.0,78,0.00,CLR,,0.00,WeatherDisplay:10.37,2013-10-27 08:42:00,
2013-10-27 03:43:00,25.7,19.8,28.79,WNW,292,0.0,0.0,78,0.00,CLR,,0.00,WeatherDisplay:10.37,2013-10-27 08:43:00,
2013-10-27 03:44:00,25.7,19.8,28.79,WNW,292,0.0,0.0,78,0.00,CLR,,0.00,WeatherDisplay:10.37,2013-10-27 08:44:00,
2013-10-27 03:47:00,25.7,20.1,28.79,WNW,292,0.0,0.0,79,0.00,CLR,,0.00,WeatherDisplay:10.37,2013-10-27 08:47:00,
2013-10-27 03:48:00,25.7,20.1,28.79,WNW,292,0.0,0.0,79,0.00,CLR,,0.00,WeatherDisplay:10.37,2013-10-27 08:48:00,
2013-10-27 03:49:00,25.7,20.1,28.79,WNW,292,0.0,0.0,79,0.00,CLR,,0.00,WeatherDisplay:10.37,2013-10-27 08:49:00,
2013-10-27 03:50:00,25.7,20.1,28.79,WNW,292,0.0,0.0,79,0.00,CLR,,0.00,WeatherDisplay:10.37,2013-10-27 08:50:00,
2013-10-27 03:52:00,25.5,19.9,28.79,WNW,292,0.0,0.0,79,0.00,CLR,,0.00,WeatherDisplay:10.37,2013-10-27 08:52:00,
2013-10-27 03:53:00,25.7,20.1,28.79,WNW,292,0.0,0.0,79,0.00,CLR,,0.00,WeatherDisplay:10.37,2013-10-27 08:53:00,
2013-10-27 03:54:00,25.5,19.9,28.79,WNW,292,0.0,0.0,79,0.00,CLR,,0.00,WeatherDisplay:10.37,2013-10-27 08:54:00,
2013-10-27 03:56:00,25.7,20.1,28.76,WNW,292,0.0,0.0,79,0.00,CLR,,0.00,WeatherDisplay:10.37,2013-10-27 08:56:00,
2013-10-27 03:57:00,25.5,19.9,28.76,WNW,292,0.0,0.0,79,0.00,CLR,,0.00,WeatherDisplay:10.37,2013-10-27 08:57:00,
2013-10-27 03:58:00,25.5,19.9,28.76,WNW,292,0.0,0.0,79,0.00,CLR,,0.00,WeatherDisplay:10.37,2013-10-27 08:58:00,
2013-10-27 03:59:00,25.5,19.9,28.76,WNW,292,0.0,0.0,79,0.00,CLR,,0.00,WeatherDisplay:10.37,2013-10-27 08:59:00,
2013-10-27 04:01:00,25.5,19.9,28.76,WNW,292,0.0,0.0,79,0.00,CLR,,0.00,WeatherDisplay:10.37,2013-10-27 09:01:00,
2013-10-27 04:02:00,25.5,19.9,28.76,WNW,292,0.0,0.0,79,0.00,CLR,,0.00,WeatherDisplay:10.37,2013-10-27 09:02:00,
2013-10-27 04:03:00,25.7,20.1,28.76,WNW,292,0.0,0.0,79,0.00,CLR,,0.00,WeatherDisplay:10.37,2013-10-27 09:03:00,
2013-10-27 04:04:00,25.7,20.1,28.76,WNW,292,0.0,0.0,79,0.00,CLR,,0.00,WeatherDisplay:10.37,2013-10-27 09:04:00,
2013-10-27 04:06:00,25.5,19.9,28.76,WNW,292,0.0,0.0,79,0.00,CLR,,0.00,WeatherDisplay:10.37,2013-10-27 09:06:00,
2013-10-27 04:08:00,25.5,19.9,28.76,WNW,292,0.0,0.0,79,0.00,CLR,,0.00,WeatherDisplay:10.37,2013-10-27 09:08:00,
2013-10-27 04:09:00,25.5,19.9,28.76,WNW,292,0.0,0.0,79,0.00,CLR,,0.00,WeatherDisplay:10.37,2013-10-27 09:09:00,
2013-10-27 04:12:00,25.5,19.9,28.79,WNW,292,0.0,0.0,79,0.00,CLR,,0.00,WeatherDisplay:10.37,2013-10-27 09:12:00,
2013-10-27 04:13:00,25.5,20.2,28.79,WNW,292,0.0,0.0,80,0.00,CLR,,0.00,WeatherDisplay:10.37,2013-10-27 09:13:00,
2013-10-27 04:14:00,25.5,20.2,28.79,WNW,292,0.0,0.0,80,0.00,CLR,,0.00,WeatherDisplay:10.37,2013-10-27 09:14:00,
2013-10-27 04:17:00,25.5,20.2,28.79,WNW,292,0.0,0.0,80,0.00,CLR,,0.00,WeatherDisplay:10.37,2013-10-27 09:17:00,
2013-10-27 04:18:00,25.5,20.2,28.79,WNW,292,0.0,0.0,80,0.00,CLR,,0.00,WeatherDisplay:10.37,2013-10-27 09:18:00,
2013-10-27 04:19:00,25.5,20.2,28.79,WNW,292,0.0,0.0,80,0.00,CLR,,0.00,WeatherDisplay:10.37,2013-10-27 09:19:00,
2013-10-27 04:22:00,25.5,20.2,28.79,WNW,292,0.0,0.0,80,0.00,CLR,,0.00,WeatherDisplay:10.37,2013-10-27 09:22:00,
2013-10-27 04:23:00,25.5,20.2,28.79,WNW,292,0.0,0.0,80,0.00,CLR,,0.00,WeatherDisplay:10.37,2013-10-27 09:23:00,
2013-10-27 04:24:00,25.5,20.2,28.79,WNW,292,0.0,0.0,80,0.00,CLR,,0.00,WeatherDisplay:10.37,2013-10-27 09:24:00,
2013-10-27 04:25:00,25.7,20.4,28.79,WNW,292,0.0,0.0,80,0.00,CLR,,0.00,WeatherDisplay:10.37,2013-10-27 09:25:00,
2013-10-27 04:27:00,25.7,20.4,28.79,WNW,292,0.0,0.0,80,0.00,CLR,,0.00,WeatherDisplay:10.37,2013-10-27 09:27:00,
2013-10-27 04:28:00,25.7,20.4,28.79,WNW,292,0.0,0.0,80,0.00,CLR,,0.00,WeatherDisplay:10.37,2013-10-27 09:28:00,
2013-10-27 04:29:00,25.7,20.4,28.79,WNW,292,0.0,0.0,80,0.00,CLR,,0.00,WeatherDisplay:10.37,2013-10-27 09:29:00,
2013-10-27 04:30:00,25.7,20.4,28.79,WNW,292,0.0,0.0,80,0.00,CLR,,0.00,WeatherDisplay:10.37,2013-10-27 09:30:00,
2013-10-27 04:31:00,25.9,20.6,28.79,WNW,292,0.0,0.0,80,0.00,CLR,,0.00,WeatherDisplay:10.37,2013-10-27 09:31:00,
2013-10-27 04:33:00,26.1,20.7,28.79,WNW,292,2.3,2.3,80,0.00,CLR,,0.00,WeatherDisplay:10.37,2013-10-27 09:33:00,
2013-10-27 04:34:00,26.1,20.7,28.79,WNW,292,0.0,0.0,80,0.00,CLR,,0.00,WeatherDisplay:10.37,2013-10-27 09:34:00,
2013-10-27 04:35:00,26.1,20.7,28.79,WNW,292,0.0,0.0,80,0.00,CLR,,0.00,WeatherDisplay:10.37,2013-10-27 09:35:00,
2013-10-27 04:36:00,26.1,20.7,28.79,WNW,292,0.0,0.0,80,0.00,CLR,,0.00,WeatherDisplay:10.37,2013-10-27 09:36:00,
2013-10-27 04:38:00,26.1,20.7,28.79,WNW,292,0.0,0.0,80,0.00,CLR,,0.00,WeatherDisplay:10.37,2013-10-27 09:38:00,
2013-10-27 04:39:00,26.1,20.7,28.79,WNW,292,0.0,0.0,80,0.00,CLR,,0.00,WeatherDisplay:10.37,2013-10-27 09:39:00,
2013-10-27 04:40:00,26.1,20.7,28.79,WNW,292,0.0,0.0,80,0.00,CLR,,0.00,WeatherDisplay:10.37,2013-10-27 09:40:00,
2013-10-27 04:41:00,26.1,20.7,28.79,WNW,292,0.0,0.0,80,0.00,CLR,,0.00,WeatherDisplay:10.37,2013-10-27 09:41:00,
2013-10-27 04:43:00,25.9,20.6,28.79,WNW,292,0.0,0.0,80,0.00,CLR,,0.00,WeatherDisplay:10.37,2013-10-27 09:43:00,
2013-10-27 04:44:00,25.9,20.6,28.79,WNW,292,0.0,0.0,80,0.00,CLR,,0.00,WeatherDisplay:10.37,2013-10-27 09:44:00,
2013-10-27 04:45:00,25.9,20.6,28.79,WNW,292,0.0,0.0,80,0.00,CLR,,0.00,WeatherDisplay:10.37,2013-10-27 09:45:00,
2013-10-27 04:46:00,25.9,20.3,28.79,WNW,292,0.0,0.0,79,0.00,CLR,,0.00,WeatherDisplay:10.37,2013-10-27 09:46:00,
2013-10-27 04:49:00,25.9,20.3,28.79,WNW,292,0.0,0.0,79,0.00,CLR,,0.00,WeatherDisplay:10.37,2013-10-27 09:49:00,
2013-10-27 04:50:00,25.9,20.3,28.79,WNW,292,0.0,0.0,79,0.00,CLR,,0.00,WeatherDisplay:10.37,2013-10-27 09:50:00,
2013-10-27 04:51:00,25.9,20.3,28.79,WNW,292,0.0,0.0,79,0.00,CLR,,0.00,WeatherDisplay:10.37,2013-10-27 09:51:00,
2013-10-27 04:54:00,25.7,20.1,28.79,WNW,292,0.0,0.0,79,0.00,CLR,,0.00,WeatherDisplay:10.37,2013-10-27 09:54:00,
2013-10-27 04:55:00,25.7,20.1,28.79,WNW,292,0.0,0.0,79,0.00,CLR,,0.00,WeatherDisplay:10.37,2013-10-27 09:55:00,
2013-10-27 04:56:00,25.7,20.1,28.79,WNW,292,0.0,0.0,79,0.00,CLR,,0.00,WeatherDisplay:10.37,2013-10-27 09:56:00,
2013-10-27 04:59:00,25.7,20.4,28.79,WNW,292,0.0,0.0,80,0.00,CLR,,0.00,WeatherDisplay:10.37,2013-10-27 09:59:00,
2013-10-27 05:00:00,25.7,20.4,28.79,WNW,292,0.0,0.0,80,0.00,CLR,,0.00,WeatherDisplay:10.37,2013-10-27 10:00:00,
2013-10-27 05:02:00,25.7,20.4,28.79,WNW,292,0.0,0.0,80,0.00,CLR,,0.00,WeatherDisplay:10.37,2013-10-27 10:02:00,
2013-10-27 05:05:00,25.5,20.2,28.79,WNW,292,0.0,0.0,80,0.00,CLR,,0.00,WeatherDisplay:10.37,2013-10-27 10:05:00,
2013-10-27 05:06:00,25.5,20.2,28.79,WNW,292,0.0,0.0,80,0.00,CLR,,0.00,WeatherDisplay:10.37,2013-10-27 10:06:00,
2013-10-27 05:07:00,25.5,20.2,28.79,WNW,292,0.0,0.0,80,0.00,CLR,,0.00,WeatherDisplay:10.37,2013-10-27 10:07:00,
2013-10-27 05:08:00,25.5,20.2,28.79,WNW,292,0.0,0.0,80,0.00,CLR,,0.00,WeatherDisplay:10.37,2013-10-27 10:08:00,
2013-10-27 05:10:00,25.5,20.2,28.79,WNW,292,0.0,0.0,80,0.00,CLR,,0.00,WeatherDisplay:10.37,2013-10-27 10:10:00,
2013-10-27 05:11:00,25.3,20.0,28.79,WNW,292,0.0,0.0,80,0.00,CLR,,0.00,WeatherDisplay:10.37,2013-10-27 10:11:00,
2013-10-27 05:12:00,25.3,20.0,28.79,WNW,292,0.0,0.0,80,0.00,CLR,,0.00,WeatherDisplay:10.37,2013-10-27 10:12:00,
2013-10-27 05:14:00,25.3,20.0,28.79,WNW,292,0.0,0.0,80,0.00,CLR,,0.00,WeatherDisplay:10.37,2013-10-27 10:14:00,
2013-10-27 05:15:00,25.3,20.0,28.79,WNW,292,0.0,0.0,80,0.00,CLR,,0.00,WeatherDisplay:10.37,2013-10-27 10:15:00,
2013-10-27 05:16:00,25.2,19.9,28.79,WNW,292,0.0,0.0,80,0.00,CLR,,0.00,WeatherDisplay:10.37,2013-10-27 10:16:00,
2013-10-27 05:18:00,25.2,19.9,28.79,WNW,292,0.0,0.0,80,0.00,CLR,,0.00,WeatherDisplay:10.37,2013-10-27 10:18:00,
2013-10-27 05:19:00,25.0,19.7,28.79,WNW,292,0.0,0.0,80,0.00,CLR,,0.00,WeatherDisplay:10.37,2013-10-27 10:19:00,
2013-10-27 05:20:00,25.0,19.7,28.79,WNW,292,0.0,0.0,80,0.00,CLR,,0.00,WeatherDisplay:10.37,2013-10-27 10:20:00,
2013-10-27 05:21:00,25.0,19.7,28.79,WNW,292,0.0,0.0,80,0.00,CLR,,0.00,WeatherDisplay:10.37,2013-10-27 10:21:00,
2013-10-27 05:23:00,25.0,19.7,28.79,WNW,292,0.0,0.0,80,0.00,CLR,,0.00,WeatherDisplay:10.37,2013-10-27 10:23:00,
2013-10-27 05:24:00,25.0,19.7,28.79,WNW,292,0.0,0.0,80,0.00,CLR,,0.00,WeatherDisplay:10.37,2013-10-27 10:24:00,
2013-10-27 05:25:00,25.0,19.7,28.79,WNW,292,0.0,0.0,80,0.00,CLR,,0.00,WeatherDisplay:10.37,2013-10-27 10:25:00,
2013-10-27 05:26:00,25.0,19.7,28.79,WNW,292,0.0,0.0,80,0.00,CLR,,0.00,WeatherDisplay:10.37,2013-10-27 10:26:00,
2013-10-27 05:29:00,24.8,19.5,28.79,WNW,292,0.0,0.0,80,0.00,CLR,,0.00,WeatherDisplay:10.37,2013-10-27 10:29:00,
2013-10-27 05:30:00,25.0,19.7,28.79,WNW,292,0.0,0.0,80,0.00,CLR,,0.00,WeatherDisplay:10.37,2013-10-27 10:30:00,
2013-10-27 05:31:00,25.0,19.7,28.79,WNW,292,0.0,0.0,80,0.00,CLR,,0.00,WeatherDisplay:10.37,2013-10-27 10:31:00,
2013-10-27 05:35:00,25.0,19.7,28.79,WNW,292,0.0,0.0,80,0.00,CLR,,0.00,WeatherDisplay:10.37,2013-10-27 10:35:00,
2013-10-27 05:36:00,25.0,19.7,28.79,WNW,292,0.0,0.0,80,0.00,CLR,,0.00,WeatherDisplay:10.37,2013-10-27 10:36:00,
2013-10-27 05:37:00,25.0,19.7,28.79,WNW,292,0.0,0.0,80,0.00,CLR,,0.00,WeatherDisplay:10.37,2013-10-27 10:37:00,
2013-10-27 05:40:00,25.2,19.9,28.79,SSE,158,1.2,1.2,80,0.00,CLR,,0.00,WeatherDisplay:10.37,2013-10-27 10:40:00,
2013-10-27 05:41:00,25.0,19.7,28.79,SSE,158,1.2,0.0,80,0.00,CLR,,0.00,WeatherDisplay:10.37,2013-10-27 10:41:00,
2013-10-27 05:42:00,25.0,19.7,28.79,SSE,158,0.0,0.0,80,0.00,CLR,,0.00,WeatherDisplay:10.37,2013-10-27 10:42:00,
2013-10-27 05:45:00,24.8,19.8,28.79,SSE,158,0.0,0.0,81,0.00,CLR,,0.00,WeatherDisplay:10.37,2013-10-27 10:45:00,
2013-10-27 05:46:00,24.8,19.8,28.79,SSE,158,0.0,0.0,81,0.00,CLR,,0.00,WeatherDisplay:10.37,2013-10-27 10:46:00,
2013-10-27 05:47:00,24.8,19.8,28.79,SSE,158,0.0,0.0,81,0.00,CLR,,0.00,WeatherDisplay:10.37,2013-10-27 10:47:00,
2013-10-27 05:48:00,24.6,19.6,28.79,SSE,158,0.0,0.0,81,0.00,CLR,,0.00,WeatherDisplay:10.37,2013-10-27 10:48:00,
2013-10-27 05:50:00,24.6,19.6,28.79,West,270,2.3,0.0,81,0.00,CLR,,0.00,WeatherDisplay:10.37,2013-10-27 10:50:00,
2013-10-27 05:52:00,24.6,19.6,28.79,West,270,2.3,2.3,81,0.00,CLR,,0.00,WeatherDisplay:10.37,2013-10-27 10:52:00,
2013-10-27 05:53:00,24.6,19.6,28.79,WNW,292,2.3,2.3,81,0.00,CLR,,0.00,WeatherDisplay:10.37,2013-10-27 10:53:00,
2013-10-27 05:56:00,24.4,19.4,28.79,West,270,1.2,1.4,81,0.00,CLR,,0.00,WeatherDisplay:10.37,2013-10-27 10:56:00,
2013-10-27 05:57:00,24.4,19.4,28.79,West,270,1.2,0.0,81,0.00,CLR,,0.00,WeatherDisplay:10.37,2013-10-27 10:57:00,
2013-10-27 05:58:00,24.4,19.2,28.79,West,270,0.0,0.0,80,0.00,CLR,,0.00,WeatherDisplay:10.37,2013-10-27 10:58:00,
2013-10-27 05:59:00,24.4,19.2,28.79,West,270,1.2,0.0,80,0.00,CLR,,0.00,WeatherDisplay:10.37,2013-10-27 10:59:00,
2013-10-27 06:01:00,24.4,19.4,28.79,West,270,0.0,0.0,81,0.00,CLR,,0.00,WeatherDisplay:10.37,2013-10-27 11:01:00,
2013-10-27 06:02:00,24.4,19.4,28.79,West,270,0.0,0.0,81,0.00,CLR,,0.00,WeatherDisplay:10.37,2013-10-27 11:02:00,
2013-10-27 06:03:00,24.6,19.6,28.79,WSW,248,0.0,0.0,81,0.00,CLR,,0.00,WeatherDisplay:10.37,2013-10-27 11:03:00,
2013-10-27 06:04:00,24.6,19.6,28.79,WSW,248,0.0,0.0,81,0.00,CLR,,0.00,WeatherDisplay:10.37,2013-10-27 11:04:00,
2013-10-27 06:06:00,24.4,19.4,28.79,WSW,248,0.0,0.0,81,0.00,CLR,,0.00,WeatherDisplay:10.37,2013-10-27 11:06:00,
2013-10-27 06:07:00,24.4,19.4,28.79,WSW,248,0.0,0.0,81,0.00,CLR,,0.00,WeatherDisplay:10.37,2013-10-27 11:07:00,
2013-10-27 06:08:00,24.4,19.4,28.79,WSW,248,0.0,0.0,81,0.00,CLR,,0.00,WeatherDisplay:10.37,2013-10-27 11:08:00,
2013-10-27 06:09:00,24.4,19.4,28.79,WSW,248,0.0,0.0,81,0.00,CLR,,0.00,WeatherDisplay:10.37,2013-10-27 11:09:00,
2013-10-27 06:11:00,24.4,19.2,28.79,WSW,248,0.0,0.0,80,0.00,CLR,,0.00,WeatherDisplay:10.37,2013-10-27 11:11:00,
2013-10-27 06:12:00,24.4,19.4,28.79,WSW,248,0.0,0.0,81,0.00,CLR,,0.00,WeatherDisplay:10.37,2013-10-27 11:12:00,
2013-10-27 06:13:00,24.4,19.4,28.79,WSW,248,0.0,0.0,81,0.00,CLR,,0.00,WeatherDisplay:10.37,2013-10-27 11:13:00,
2013-10-27 06:15:00,24.4,19.4,28.79,WSW,248,0.0,0.0,81,0.00,CLR,,0.00,WeatherDisplay:10.37,2013-10-27 11:15:00,
2013-10-27 06:16:00,24.4,19.4,28.79,WSW,248,0.0,0.0,81,0.00,CLR,,0.00,WeatherDisplay:10.37,2013-10-27 11:16:00,
2013-10-27 06:18:00,24.6,19.9,28.79,WSW,248,0.0,0.0,82,0.00,CLR,,0.00,WeatherDisplay:10.37,2013-10-27 11:18:00,
2013-10-27 06:19:00,24.6,19.9,28.79,WSW,248,0.0,0.0,82,0.00,CLR,,0.00,WeatherDisplay:10.37,2013-10-27 11:19:00,
2013-10-27 06:20:00,24.8,20.1,28.79,WSW,248,0.0,0.0,82,0.00,CLR,,0.00,WeatherDisplay:10.37,2013-10-27 11:20:00,
2013-10-27 06:21:00,25.0,20.3,28.79,WSW,248,0.0,0.0,82,0.00,CLR,,0.00,WeatherDisplay:10.37,2013-10-27 11:21:00,
2013-10-27 06:23:00,25.0,20.3,28.79,WSW,248,0.0,0.0,82,0.00,CLR,,0.00,WeatherDisplay:10.37,2013-10-27 11:23:00,
2013-10-27 06:24:00,25.0,20.3,28.79,WSW,248,0.0,0.0,82,0.00,CLR,,0.00,WeatherDisplay:10.37,2013-10-27 11:24:00,
2013-10-27 06:25:00,25.0,20.3,28.79,WSW,248,0.0,0.0,82,0.00,CLR,,0.00,WeatherDisplay:10.37,2013-10-27 11:25:00,
2013-10-27 06:26:00,25.2,20.4,28.79,WSW,248,0.0,0.0,82,0.00,CLR,,0.00,WeatherDisplay:10.37,2013-10-27 11:26:00,
2013-10-27 06:27:00,25.2,20.4,28.79,WSW,248,0.0,0.0,82,0.00,CLR,,0.00,WeatherDisplay:10.37,2013-10-27 11:27:00,
2013-10-27 06:29:00,25.2,20.4,28.79,WSW,248,0.0,0.0,82,0.00,CLR,,0.00,WeatherDisplay:10.37,2013-10-27 11:29:00,
2013-10-27 06:30:00,25.2,20.4,28.79,WSW,248,0.0,0.0,82,0.00,CLR,,0.00,WeatherDisplay:10.37,2013-10-27 11:30:00,
2013-10-27 06:31:00,25.2,20.4,28.79,WSW,248,0.0,0.0,82,0.00,CLR,,0.00,WeatherDisplay:10.37,2013-10-27 11:31:00,
2013-10-27 06:32:00,25.2,20.4,28.79,WSW,248,0.0,0.0,82,0.00,CLR,,0.00,WeatherDisplay:10.37,2013-10-27 11:32:00,
2013-10-27 06:34:00,25.3,20.9,28.79,WSW,248,0.0,0.0,83,0.00,CLR,,0.00,WeatherDisplay:10.37,2013-10-27 11:34:00,
2013-10-27 06:36:00,25.3,20.9,28.79,WSW,248,0.0,0.0,83,0.00,CLR,,0.00,WeatherDisplay:10.37,2013-10-27 11:36:00,
2013-10-27 06:37:00,25.3,20.9,28.79,WSW,248,0.0,0.0,83,0.00,CLR,,0.00,WeatherDisplay:10.37,2013-10-27 11:37:00,
2013-10-27 06:39:00,25.0,20.0,28.79,WSW,248,0.0,0.0,81,0.00,CLR,,0.00,WeatherDisplay:10.37,2013-10-27 11:39:00,
2013-10-27 06:40:00,24.8,20.1,28.79,WSW,248,0.0,0.0,82,0.00,CLR,,0.00,WeatherDisplay:10.37,2013-10-27 11:40:00,
2013-10-27 06:41:00,24.8,20.1,28.79,WSW,248,0.0,0.0,82,0.00,CLR,,0.00,WeatherDisplay:10.37,2013-10-27 11:41:00,
2013-10-27 06:42:00,24.8,20.1,28.79,WSW,248,0.0,0.0,82,0.00,CLR,,0.00,WeatherDisplay:10.37,2013-10-27 11:42:00,
2013-10-27 06:44:00,25.0,20.3,28.79,South,180,1.4,0.0,82,0.00,CLR,,0.00,WeatherDisplay:10.37,2013-10-27 11:44:00,
2013-10-27 06:45:00,25.2,20.4,28.79,South,180,2.3,2.3,82,0.00,CLR,,0.00,WeatherDisplay:10.37,2013-10-27 11:45:00,
2013-10-27 06:46:00,25.3,20.9,28.79,South,180,2.3,2.3,83,0.00,CLR,,0.00,WeatherDisplay:10.37,2013-10-27 11:46:00,
2013-10-27 06:47:00,25.5,21.1,28.79,South,180,2.3,2.3,83,0.00,CLR,,0.00,WeatherDisplay:10.37,2013-10-27 11:47:00,
2013-10-27 06:49:00,25.3,20.9,28.79,South,180,1.2,0.0,83,0.00,CLR,,0.00,WeatherDisplay:10.37,2013-10-27 11:49:00,
2013-10-27 06:51:00,25.3,20.9,28.79,South,180,0.0,0.0,83,0.00,CLR,,0.00,WeatherDisplay:10.37,2013-10-27 11:51:00,
2013-10-27 06:52:00,25.2,20.7,28.79,South,180,0.0,0.0,83,0.00,CLR,,0.00,WeatherDisplay:10.37,2013-10-27 11:52:00,
2013-10-27 06:54:00,25.2,20.7,28.82,South,180,0.0,0.0,83,0.00,CLR,,0.00,WeatherDisplay:10.37,2013-10-27 11:54:00,
2013-10-27 06:56:00,25.0,20.5,28.82,South,180,0.0,0.0,83,0.00,CLR,,0.00,WeatherDisplay:10.37,2013-10-27 11:56:00,
2013-10-27 06:57:00,25.0,20.5,28.82,South,180,0.0,0.0,83,0.00,CLR,,0.00,WeatherDisplay:10.37,2013-10-27 11:57:00,
2013-10-27 06:58:00,24.8,20.4,28.82,South,180,0.0,0.0,83,0.00,CLR,,0.00,WeatherDisplay:10.37,2013-10-27 11:58:00,
2013-10-27 06:59:00,24.6,20.2,28.82,South,180,0.0,0.0,83,0.00,CLR,,0.00,WeatherDisplay:10.37,2013-10-27 11:59:00,
2013-10-27 07:01:00,24.4,19.7,28.82,South,180,0.0,0.0,82,0.00,CLR,,0.00,WeatherDisplay:10.37,2013-10-27 12:01:00,
2013-10-27 07:02:00,24.4,19.7,28.82,South,180,0.0,0.0,82,0.00,CLR,,0.00,WeatherDisplay:10.37,2013-10-27 12:02:00,
2013-10-27 07:03:00,24.4,19.7,28.82,South,180,0.0,0.0,82,0.00,CLR,,0.00,WeatherDisplay:10.37,2013-10-27 12:03:00,
2013-10-27 07:05:00,24.3,19.6,28.82,South,180,0.0,0.0,82,0.00,CLR,,0.00,WeatherDisplay:10.37,2013-10-27 12:05:00,
2013-10-27 07:07:00,24.3,19.6,28.82,South,180,0.0,0.0,82,0.00,CLR,,0.00,WeatherDisplay:10.37,2013-10-27 12:07:00,
2013-10-27 07:08:00,24.1,19.4,28.82,South,180,0.0,0.0,82,0.00,CLR,,0.00,WeatherDisplay:10.37,2013-10-27 12:08:00,
2013-10-27 07:09:00,24.1,19.4,28.79,South,180,0.0,0.0,82,0.00,CLR,,0.00,WeatherDisplay:10.37,2013-10-27 12:09:00,
2013-10-27 07:10:00,24.1,19.4,28.79,South,180,0.0,0.0,82,0.00,CLR,,0.00,WeatherDisplay:10.37,2013-10-27 12:10:00,
2013-10-27 07:12:00,24.1,19.4,28.79,South,180,1.2,0.0,82,0.00,CLR,,0.00,WeatherDisplay:10.37,2013-10-27 12:12:00,
2013-10-27 07:13:00,24.1,19.4,28.79,South,180,0.0,0.0,82,0.00,CLR,,0.00,WeatherDisplay:10.37,2013-10-27 12:13:00,
2013-10-27 07:14:00,24.1,19.4,28.79,South,180,0.0,0.0,82,0.00,CLR,,0.00,WeatherDisplay:10.37,2013-10-27 12:14:00,
2013-10-27 07:15:00,24.1,19.4,28.79,South,180,0.0,0.0,82,0.00,CLR,,0.00,WeatherDisplay:10.37,2013-10-27 12:15:00,
2013-10-27 07:17:00,24.1,19.4,28.79,South,180,0.0,0.0,82,0.00,CLR,,0.00,WeatherDisplay:10.37,2013-10-27 12:17:00,
2013-10-27 07:18:00,24.3,19.8,28.79,South,180,0.0,0.0,83,0.00,CLR,,0.00,WeatherDisplay:10.37,2013-10-27 12:18:00,
2013-10-27 07:19:00,24.3,19.8,28.79,South,180,0.0,0.0,83,0.00,CLR,,0.00,WeatherDisplay:10.37,2013-10-27 12:19:00,
2013-10-27 07:20:00,24.3,19.8,28.79,South,180,0.0,0.0,83,0.00,CLR,,0.00,WeatherDisplay:10.37,2013-10-27 12:20:00,
2013-10-27 07:22:00,24.1,19.7,28.79,South,180,0.0,0.0,83,0.00,CLR,,0.00,WeatherDisplay:10.37,2013-10-27 12:22:00,
2013-10-27 07:24:00,24.1,19.7,28.79,South,180,0.0,0.0,83,0.00,CLR,,0.00,WeatherDisplay:10.37,2013-10-27 12:24:00,
2013-10-27 07:25:00,24.1,19.7,28.79,South,180,0.0,0.0,83,0.00,CLR,,0.00,WeatherDisplay:10.37,2013-10-27 12:25:00,
2013-10-27 07:27:00,24.1,19.7,28.79,South,180,0.0,0.0,83,0.00,CLR,,0.00,WeatherDisplay:10.37,2013-10-27 12:27:00,
2013-10-27 07:29:00,24.1,19.7,28.79,South,180,0.0,0.0,83,0.00,CLR,,0.00,WeatherDisplay:10.37,2013-10-27 12:29:00,
2013-10-27 07:30:00,24.4,20.0,28.79,South,180,0.0,0.0,83,0.00,CLR,,0.00,WeatherDisplay:10.37,2013-10-27 12:30:00,
2013-10-27 07:31:00,24.4,20.0,28.79,South,180,0.0,0.0,83,0.00,CLR,,0.00,WeatherDisplay:10.37,2013-10-27 12:31:00,
2013-10-27 07:32:00,24.4,20.0,28.79,South,180,0.0,0.0,83,0.00,CLR,,0.00,WeatherDisplay:10.37,2013-10-27 12:32:00,
2013-10-27 07:34:00,24.4,20.0,28.79,South,180,0.0,0.0,83,0.00,CLR,,0.00,WeatherDisplay:10.37,2013-10-27 12:34:00,
2013-10-27 07:35:00,24.4,20.0,28.79,South,180,0.0,0.0,83,0.00,CLR,,0.00,WeatherDisplay:10.37,2013-10-27 12:35:00,
2013-10-27 07:36:00,24.4,20.0,28.79,South,180,0.0,0.0,83,0.00,CLR,,0.00,WeatherDisplay:10.37,2013-10-27 12:36:00,
2013-10-27 07:37:00,24.4,20.0,28.79,South,180,0.0,0.0,83,0.00,CLR,,0.00,WeatherDisplay:10.37,2013-10-27 12:37:00,
2013-10-27 07:38:00,24.4,20.0,28.79,South,180,0.0,0.0,83,0.00,CLR,,0.00,WeatherDisplay:10.37,2013-10-27 12:38:00,
2013-10-27 07:40:00,24.6,20.2,28.79,South,180,0.0,0.0,83,0.00,CLR,,0.00,WeatherDisplay:10.37,2013-10-27 12:40:00,
2013-10-27 07:41:00,24.6,20.2,28.79,South,180,0.0,0.0,83,0.00,CLR,,0.00,WeatherDisplay:10.37,2013-10-27 12:41:00,
2013-10-27 07:42:00,25.0,20.5,28.79,South,180,0.0,0.0,83,0.00,CLR,,0.00,WeatherDisplay:10.37,2013-10-27 12:42:00,
2013-10-27 07:43:00,25.2,21.0,28.79,South,180,0.0,0.0,84,0.00,CLR,,0.00,WeatherDisplay:10.37,2013-10-27 12:43:00,
2013-10-27 07:45:00,25.3,21.2,28.79,South,180,0.0,0.0,84,0.00,CLR,,0.00,WeatherDisplay:10.37,2013-10-27 12:45:00,
2013-10-27 07:46:00,25.5,21.4,28.79,South,180,0.9,0.0,84,0.00,CLR,,0.00,WeatherDisplay:10.37,2013-10-27 12:46:00,
2013-10-27 07:47:00,26.1,21.9,28.79,South,180,1.4,1.4,84,0.00,CLR,,0.00,WeatherDisplay:10.37,2013-10-27 12:47:00,
2013-10-27 07:48:00,26.4,22.2,28.79,South,180,1.2,1.2,84,0.00,CLR,,0.00,WeatherDisplay:10.37,2013-10-27 12:48:00,
2013-10-27 07:50:00,27.0,23.1,28.79,South,180,0.0,0.0,85,0.00,CLR,,0.00,WeatherDisplay:10.37,2013-10-27 12:50:00,
2013-10-27 07:51:00,27.1,23.2,28.79,South,180,0.0,0.0,85,0.00,CLR,,0.00,WeatherDisplay:10.37,2013-10-27 12:51:00,
2013-10-27 07:52:00,27.7,23.8,28.79,South,180,0.0,0.0,85,0.00,CLR,,0.00,WeatherDisplay:10.37,2013-10-27 12:52:00,
2013-10-27 07:53:00,27.7,23.8,28.79,South,180,0.0,0.0,85,0.00,CLR,,0.00,WeatherDisplay:10.37,2013-10-27 12:53:00,
2013-10-27 07:55:00,28.2,24.3,28.79,South,180,0.0,0.0,85,0.00,CLR,,0.00,WeatherDisplay:10.37,2013-10-27 12:55:00,
2013-10-27 07:56:00,28.2,24.3,28.79,South,180,1.4,0.0,85,0.00,CLR,,0.00,WeatherDisplay:10.37,2013-10-27 12:56:00,
2013-10-27 07:58:00,28.8,25.1,28.79,South,180,0.0,0.0,86,0.00,CLR,,0.00,WeatherDisplay:10.37,2013-10-27 12:58:00,
2013-10-27 08:00:00,29.1,25.5,28.79,South,180,2.6,2.6,86,0.00,CLR,,0.00,WeatherDisplay:10.37,2013-10-27 13:00:00,
2013-10-27 08:01:00,29.1,25.5,28.79,South,180,2.4,2.4,86,0.00,CLR,,0.00,WeatherDisplay:10.37,2013-10-27 13:01:00,
2013-10-27 08:03:00,29.5,26.4,28.79,South,180,2.3,2.3,88,0.00,CLR,,0.00,WeatherDisplay:10.37,2013-10-27 13:03:00,
2013-10-27 08:06:00,30.0,26.6,28.79,South,180,0.0,0.0,87,0.00,CLR,,0.00,WeatherDisplay:10.37,2013-10-27 13:06:00,
2013-10-27 08:07:00,30.2,26.8,28.79,South,180,0.0,0.0,87,0.00,CLR,,0.00,WeatherDisplay:10.37,2013-10-27 13:07:00,
2013-10-27 08:08:00,30.4,27.0,28.79,South,180,0.0,0.0,87,0.00,CLR,,0.00,WeatherDisplay:10.37,2013-10-27 13:08:00,
2013-10-27 08:09:00,30.6,27.2,28.79,South,180,0.0,0.0,87,0.00,CLR,,0.00,WeatherDisplay:10.37,2013-10-27 13:09:00,
2013-10-27 08:11:00,30.7,27.0,28.79,South,180,0.0,0.0,86,0.00,CLR,,0.00,WeatherDisplay:10.37,2013-10-27 13:11:00,
2013-10-27 08:12:00,30.7,27.0,28.79,South,180,0.0,0.0,86,0.00,CLR,,0.00,WeatherDisplay:10.37,2013-10-27 13:12:00,
2013-10-27 08:14:00,30.9,26.9,28.79,South,180,0.0,0.0,85,0.00,CLR,,0.00,WeatherDisplay:10.37,2013-10-27 13:14:00,
2013-10-27 08:15:00,31.1,27.1,28.79,South,180,0.0,0.0,85,0.00,CLR,,0.00,WeatherDisplay:10.37,2013-10-27 13:15:00,
2013-10-27 08:16:00,31.3,27.3,28.79,South,180,0.0,0.0,85,0.00,CLR,,0.00,WeatherDisplay:10.37,2013-10-27 13:16:00,
2013-10-27 08:17:00,31.5,27.5,28.79,South,180,0.0,0.0,85,0.00,CLR,,0.00,WeatherDisplay:10.37,2013-10-27 13:17:00,
2013-10-27 08:19:00,31.8,27.8,28.79,South,180,0.0,0.0,85,0.00,CLR,,0.00,WeatherDisplay:10.37,2013-10-27 13:19:00,
2013-10-27 08:20:00,32.0,28.0,28.79,South,180,0.0,0.0,85,0.00,CLR,,0.00,WeatherDisplay:10.37,2013-10-27 13:20:00,
2013-10-27 08:21:00,32.2,28.2,28.79,South,180,0.0,0.0,85,0.00,CLR,,0.00,WeatherDisplay:10.37,2013-10-27 13:21:00,
2013-10-27 08:22:00,32.5,28.2,28.79,South,180,0.0,0.0,84,0.00,CLR,,0.00,WeatherDisplay:10.37,2013-10-27 13:22:00,
2013-10-27 08:24:00,33.1,29.1,28.79,South,180,0.0,0.0,85,0.00,CLR,,0.00,WeatherDisplay:10.37,2013-10-27 13:24:00,
2013-10-27 08:25:00,33.3,29.2,28.79,South,180,0.0,0.0,85,0.00,CLR,,0.00,WeatherDisplay:10.37,2013-10-27 13:25:00,
2013-10-27 08:26:00,33.8,29.8,28.79,South,180,0.0,0.0,85,0.00,CLR,,0.00,WeatherDisplay:10.37,2013-10-27 13:26:00,
2013-10-27 08:27:00,33.8,29.8,28.79,South,180,0.0,0.0,85,0.00,CLR,,0.00,WeatherDisplay:10.37,2013-10-27 13:27:00,
2013-10-27 08:29:00,34.3,30.6,28.79,South,180,0.0,0.0,86,0.00,CLR,,0.00,WeatherDisplay:10.37,2013-10-27 13:29:00,
2013-10-27 08:30:00,34.5,30.5,28.79,South,180,0.0,0.0,85,0.00,CLR,,0.00,WeatherDisplay:10.37,2013-10-27 13:30:00,
2013-10-27 08:31:00,34.5,30.5,28.79,South,180,0.0,0.0,85,0.00,CLR,,0.00,WeatherDisplay:10.37,2013-10-27 13:31:00,
2013-10-27 08:32:00,34.7,30.7,28.79,South,180,0.0,0.0,85,0.00,CLR,,0.00,WeatherDisplay:10.37,2013-10-27 13:32:00,
2013-10-27 08:34:00,34.9,30.8,28.79,South,180,0.0,0.0,85,0.00,CLR,,0.00,WeatherDisplay:10.37,2013-10-27 13:34:00,
2013-10-27 08:35:00,34.9,30.8,28.79,South,180,0.0,0.0,85,0.00,CLR,,0.00,WeatherDisplay:10.37,2013-10-27 13:35:00,
2013-10-27 08:37:00,34.9,30.5,28.79,South,180,0.0,0.0,84,0.00,CLR,,0.00,WeatherDisplay:10.37,2013-10-27 13:37:00,
2013-10-27 08:38:00,34.5,29.9,28.79,South,180,0.0,0.0,83,0.00,CLR,,0.00,WeatherDisplay:10.37,2013-10-27 13:38:00,
2013-10-27 08:39:00,34.5,29.9,28.79,South,180,1.2,0.0,83,0.00,CLR,,0.00,WeatherDisplay:10.37,2013-10-27 13:39:00,
2013-10-27 08:40:00,34.5,29.9,28.79,South,180,1.2,1.2,83,0.00,CLR,,0.00,WeatherDisplay:10.37,2013-10-27 13:40:00,
2013-10-27 08:42:00,34.9,29.9,28.79,South,180,0.0,0.0,82,0.00,CLR,,0.00,WeatherDisplay:10.37,2013-10-27 13:42:00,
2013-10-27 08:43:00,34.9,29.6,28.79,South,180,1.4,0.0,81,0.00,CLR,,0.00,WeatherDisplay:10.37,2013-10-27 13:43:00,
2013-10-27 08:45:00,34.9,29.3,28.79,South,180,1.2,1.4,80,0.00,CLR,,0.00,WeatherDisplay:10.37,2013-10-27 13:45:00,
2013-10-27 08:46:00,35.2,29.7,28.79,South,180,1.6,0.0,80,0.00,CLR,,0.00,WeatherDisplay:10.37,2013-10-27 13:46:00,
2013-10-27 08:47:00,35.4,30.2,28.79,South,180,2.3,2.3,81,0.00,CLR,,0.00,WeatherDisplay:10.37,2013-10-27 13:47:00,
2013-10-27 08:48:00,35.6,30.3,28.79,South,180,1.2,1.2,81,0.00,CLR,,0.00,WeatherDisplay:10.37,2013-10-27 13:48:00,
2013-10-27 08:50:00,36.9,31.6,28.79,South,180,0.0,0.0,81,0.00,CLR,,0.00,WeatherDisplay:10.37,2013-10-27 13:50:00,
2013-10-27 08:51:00,36.9,31.6,28.79,WSW,248,0.0,0.0,81,0.00,CLR,,0.00,WeatherDisplay:10.37,2013-10-27 13:51:00,
2013-10-27 08:52:00,36.9,31.6,28.79,NW,315,1.2,0.0,81,0.00,CLR,,0.00,WeatherDisplay:10.37,2013-10-27 13:52:00,
2013-10-27 08:53:00,37.0,31.4,28.79,NW,315,1.2,0.0,80,0.00,CLR,,0.00,WeatherDisplay:10.37,2013-10-27 13:53:00,
2013-10-27 08:55:00,37.4,31.2,28.79,NW,315,0.0,0.0,78,0.00,CLR,,0.00,WeatherDisplay:10.37,2013-10-27 13:55:00,
2013-10-27 08:57:00,37.4,31.2,28.79,NW,315,0.0,0.0,78,0.00,CLR,,0.00,WeatherDisplay:10.37,2013-10-27 13:57:00,
2013-10-27 08:58:00,38.5,32.2,28.79,NW,315,0.0,0.0,78,0.00,CLR,,0.00,WeatherDisplay:10.37,2013-10-27 13:58:00,
2013-10-27 09:01:00,39.0,32.7,28.79,NW,315,0.0,0.0,78,0.00,CLR,,0.00,WeatherDisplay:10.37,2013-10-27 14:01:00,
2013-10-27 09:02:00,39.4,32.8,28.79,NW,315,0.0,0.0,77,0.00,CLR,,0.00,WeatherDisplay:10.37,2013-10-27 14:02:00,
2013-10-27 09:03:00,39.7,33.1,28.79,NW,315,0.9,0.0,77,0.00,CLR,,0.00,WeatherDisplay:10.37,2013-10-27 14:03:00,
2013-10-27 09:06:00,40.1,33.5,28.79,NW,315,1.2,0.0,77,0.00,CLR,,0.00,WeatherDisplay:10.37,2013-10-27 14:06:00,
2013-10-27 09:07:00,40.3,33.3,28.79,NW,315,2.2,2.2,76,0.00,CLR,,0.00,WeatherDisplay:10.37,2013-10-27 14:07:00,
2013-10-27 09:08:00,40.3,33.3,28.79,NW,315,2.3,2.3,76,0.00,CLR,,0.00,WeatherDisplay:10.37,2013-10-27 14:08:00,
2013-10-27 09:09:00,40.3,33.0,28.79,NW,315,2.4,2.4,75,0.00,CLR,,0.00,WeatherDisplay:10.37,2013-10-27 14:09:00,
2013-10-27 09:11:00,40.6,33.0,28.79,NW,315,0.0,0.0,74,0.00,CLR,,0.00,WeatherDisplay:10.37,2013-10-27 14:11:00,
2013-10-27 09:13:00,41.4,33.7,28.79,NW,315,1.4,1.4,74,0.00,CLR,,0.00,WeatherDisplay:10.37,2013-10-27 14:13:00,
2013-10-27 09:14:00,41.5,33.9,28.79,NW,315,1.6,1.6,74,0.00,CLR,,0.00,WeatherDisplay:10.37,2013-10-27 14:14:00,
2013-10-27 09:16:00,41.7,33.7,28.79,West,270,2.3,2.3,73,0.00,CLR,,0.00,WeatherDisplay:10.37,2013-10-27 14:16:00,
2013-10-27 09:18:00,42.3,33.5,28.79,West,270,2.3,0.0,71,0.00,CLR,,0.00,WeatherDisplay:10.37,2013-10-27 14:18:00,
2013-10-27 09:19:00,42.3,33.5,28.79,West,270,0.9,0.0,71,0.00,CLR,,0.00,WeatherDisplay:10.37,2013-10-27 14:19:00,
2013-10-27 09:22:00,41.7,30.8,28.79,West,270,2.3,2.3,65,0.00,CLR,,0.00,WeatherDisplay:10.37,2013-10-27 14:22:00,
2013-10-27 09:23:00,41.9,31.0,28.79,NNW,338,2.3,2.3,65,0.00,CLR,,0.00,WeatherDisplay:10.37,2013-10-27 14:23:00,
2013-10-27 09:24:00,42.3,31.3,28.79,West,270,2.3,2.3,65,0.00,CLR,,0.00,WeatherDisplay:10.37,2013-10-27 14:24:00,
2013-10-27 09:26:00,42.6,32.4,28.79,WNW,292,1.2,0.0,67,0.00,CLR,,0.00,WeatherDisplay:10.37,2013-10-27 14:26:00,
2013-10-27 09:27:00,43.3,32.7,28.79,WSW,248,2.6,2.6,66,0.00,CLR,,0.00,WeatherDisplay:10.37,2013-10-27 14:27:00,
2013-10-27 09:29:00,43.7,33.1,28.79,SW,225,2.3,2.3,66,0.00,CLR,,0.00,WeatherDisplay:10.37,2013-10-27 14:29:00,
2013-10-27 09:30:00,43.9,32.5,28.79,NW,315,1.2,1.2,64,0.00,CLR,,0.00,WeatherDisplay:10.37,2013-10-27 14:30:00,
2013-10-27 09:31:00,44.4,33.0,28.79,WSW,248,3.6,3.6,64,0.00,CLR,,0.00,WeatherDisplay:10.37,2013-10-27 14:31:00,
2013-10-27 09:32:00,44.1,30.6,28.79,South,180,4.6,4.6,59,0.00,CLR,,0.00,WeatherDisplay:10.37,2013-10-27 14:32:00,
2013-10-27 09:34:00,43.5,28.8,28.79,WSW,248,8.1,8.1,56,0.00,CLR,,0.00,WeatherDisplay:10.37,2013-10-27 14:34:00,
2013-10-27 09:35:00,43.3,27.8,28.79,NW,315,5.8,5.8,54,0.00,CLR,,0.00,WeatherDisplay:10.37,2013-10-27 14:35:00,
2013-10-27 09:36:00,43.5,28.8,28.79,WSW,248,2.3,2.3,56,0.00,CLR,,0.00,WeatherDisplay:10.37,2013-10-27 14:36:00,
2013-10-27 09:37:00,43.5,28.4,28.79,WNW,292,5.8,5.8,55,0.00,CLR,,0.00,WeatherDisplay:10.37,2013-10-27 14:37:00,
2013-10-27 09:39:00,43.9,29.2,28.79,SW,225,5.8,5.8,56,0.00,CLR,,0.00,WeatherDisplay:10.37,2013-10-27 14:39:00,
2013-10-27 09:40:00,43.9,28.7,28.76,WSW,248,5.8,5.8,55,0.00,CLR,,0.00,WeatherDisplay:10.37,2013-10-27 14:40:00,
2013-10-27 09:41:00,43.9,28.3,28.76,SE,135,9.2,9.2,54,0.00,CLR,,0.00,WeatherDisplay:10.37,2013-10-27 14:41:00,
2013-10-27 09:42:00,43.7,27.7,28.76,West,270,9.2,9.2,53,0.00,CLR,,0.00,WeatherDisplay:10.37,2013-10-27 14:42:00,
2013-10-27 09:44:00,43.9,27.8,28.76,SSE,158,5.8,5.8,53,0.00,CLR,,0.00,WeatherDisplay:10.37,2013-10-27 14:44:00,
2013-10-27 09:45:00,43.9,26.9,28.76,WSW,248,8.1,8.1,51,0.00,CLR,,0.00,WeatherDisplay:10.37,2013-10-27 14:45:00,
2013-10-27 09:46:00,43.7,26.7,28.76,WSW,248,8.1,8.1,51,0.00,CLR,,0.00,WeatherDisplay:10.37,2013-10-27 14:46:00,
2013-10-27 09:47:00,43.7,26.7,28.76,SSW,202,5.8,5.8,51,0.00,CLR,,0.00,WeatherDisplay:10.37,2013-10-27 14:47:00,
2013-10-27 09:49:00,43.9,27.4,28.76,WSW,248,8.1,8.1,52,0.00,CLR,,0.00,WeatherDisplay:10.37,2013-10-27 14:49:00,
2013-10-27 09:50:00,43.3,26.4,28.76,West,270,5.8,5.8,51,0.00,CLR,,0.00,WeatherDisplay:10.37,2013-10-27 14:50:00,
2013-10-27 09:51:00,43.3,25.9,28.76,West,270,4.6,6.2,50,0.00,CLR,,0.00,WeatherDisplay:10.37,2013-10-27 14:51:00,
2013-10-27 09:52:00,43.2,26.2,28.76,NW,315,8.1,8.1,51,0.00,CLR,,0.00,WeatherDisplay:10.37,2013-10-27 14:52:00,
2013-10-27 09:55:00,43.3,26.4,28.79,West,270,11.8,11.8,51,0.00,CLR,,0.00,WeatherDisplay:10.37,2013-10-27 14:55:00,
2013-10-27 09:56:00,43.7,26.7,28.79,SSW,202,11.5,11.5,51,0.00,CLR,,0.00,WeatherDisplay:10.37,2013-10-27 14:56:00,
2013-10-27 09:57:00,43.7,26.7,28.79,WSW,248,5.8,5.8,51,0.00,CLR,,0.00,WeatherDisplay:10.37,2013-10-27 14:57:00,
2013-10-27 09:58:00,43.7,26.7,28.79,WNW,292,8.5,8.5,51,0.00,CLR,,0.00,WeatherDisplay:10.37,2013-10-27 14:58:00,
2013-10-27 10:00:00,43.5,26.1,28.79,NW,315,10.4,10.4,50,0.00,CLR,,0.00,WeatherDisplay:10.37,2013-10-27 15:00:00,
2013-10-27 10:01:00,43.5,26.6,28.79,WSW,248,6.9,6.9,51,0.00,CLR,,0.00,WeatherDisplay:10.37,2013-10-27 15:01:00,
2013-10-27 10:02:00,43.5,26.6,28.79,South,180,6.9,6.9,51,0.00,CLR,,0.00,WeatherDisplay:10.37,2013-10-27 15:02:00,
2013-10-27 10:03:00,43.7,26.7,28.79,WSW,248,5.8,5.8,51,0.00,CLR,,0.00,WeatherDisplay:10.37,2013-10-27 15:03:00,
2013-10-27 10:05:00,43.7,26.3,28.79,SW,225,5.8,5.8,50,0.00,CLR,,0.00,WeatherDisplay:10.37,2013-10-27 15:05:00,
2013-10-27 10:07:00,43.7,26.3,28.79,NNW,338,6.9,6.9,50,0.00,CLR,,0.00,WeatherDisplay:10.37,2013-10-27 15:07:00,
2013-10-27 10:08:00,43.7,25.8,28.79,ESE,112,6.9,6.9,49,0.00,CLR,,0.00,WeatherDisplay:10.37,2013-10-27 15:08:00,
2013-10-27 10:10:00,43.9,25.9,28.79,SE,135,6.0,6.0,49,0.00,CLR,,0.00,WeatherDisplay:10.37,2013-10-27 15:10:00,
2013-10-27 10:12:00,43.7,25.8,28.79,WSW,248,5.8,5.8,49,0.00,CLR,,0.00,WeatherDisplay:10.37,2013-10-27 15:12:00,
2013-10-27 10:13:00,44.1,26.1,28.79,West,270,5.8,5.8,49,0.00,CLR,,0.00,WeatherDisplay:10.37,2013-10-27 15:13:00,
2013-10-27 10:14:00,44.2,26.3,28.79,South,180,8.1,8.1,49,0.00,CLR,,0.00,WeatherDisplay:10.37,2013-10-27 15:14:00,
2013-10-27 10:15:00,44.2,26.3,28.79,SSW,202,8.1,8.1,49,0.00,CLR,,0.00,WeatherDisplay:10.37,2013-10-27 15:15:00,
2013-10-27 10:17:00,44.1,26.1,28.79,West,270,6.9,6.9,49,0.00,CLR,,0.00,WeatherDisplay:10.37,2013-10-27 15:17:00,
2013-10-27 10:18:00,44.1,26.1,28.79,SE,135,10.4,10.4,49,0.00,CLR,,0.00,WeatherDisplay:10.37,2013-10-27 15:18:00,
2013-10-27 10:19:00,44.1,26.1,28.79,WSW,248,10.4,10.4,49,0.00,CLR,,0.00,WeatherDisplay:10.37,2013-10-27 15:19:00,
2013-10-27 10:21:00,44.2,26.3,28.79,WSW,248,9.2,9.2,49,0.00,CLR,,0.00,WeatherDisplay:10.37,2013-10-27 15:21:00,
2013-10-27 10:22:00,44.4,26.4,28.79,SW,225,4.6,4.6,49,0.00,CLR,,0.00,WeatherDisplay:10.37,2013-10-27 15:22:00,
2013-10-27 10:23:00,45.0,26.4,28.79,SW,225,5.8,5.8,48,0.00,CLR,,0.00,WeatherDisplay:10.37,2013-10-27 15:23:00,
2013-10-27 10:24:00,45.0,26.4,28.79,SSW,202,3.5,3.8,48,0.00,CLR,,0.00,WeatherDisplay:10.37,2013-10-27 15:24:00,
2013-10-27 10:25:00,45.3,26.8,28.76,WSW,248,3.5,3.5,48,0.00,CLR,,0.00,WeatherDisplay:10.37,2013-10-27 15:25:00,
2013-10-27 10:26:00,46.0,27.4,28.76,West,270,6.2,6.2,48,0.00,CLR,,0.00,WeatherDisplay:10.37,2013-10-27 15:26:00,
2013-10-27 10:27:00,46.0,27.4,28.76,WNW,292,5.8,5.8,48,0.00,CLR,,0.00,WeatherDisplay:10.37,2013-10-27 15:27:00,
2013-10-27 10:29:00,46.4,26.7,28.76,WSW,248,9.2,9.2,46,0.00,CLR,,0.00,WeatherDisplay:10.37,2013-10-27 15:29:00,
2013-10-27 10:30:00,46.4,26.7,28.76,WSW,248,9.2,9.2,46,0.00,CLR,,0.00,WeatherDisplay:10.37,2013-10-27 15:30:00,
2013-10-27 10:31:00,45.9,26.2,28.76,WNW,292,5.8,7.1,46,0.00,CLR,,0.00,WeatherDisplay:10.37,2013-10-27 15:31:00,
2013-10-27 10:32:00,45.7,26.1,28.76,West,270,12.7,12.7,46,0.00,CLR,,0.00,WeatherDisplay:10.37,2013-10-27 15:32:00,
2013-10-27 10:34:00,45.3,25.7,28.76,WSW,248,7.8,7.8,46,0.00,CLR,,0.00,WeatherDisplay:10.37,2013-10-27 15:34:00,
2013-10-27 10:35:00,45.5,25.9,28.76,WSW,248,8.1,8.1,46,0.00,CLR,,0.00,WeatherDisplay:10.37,2013-10-27 15:35:00,
2013-10-27 10:37:00,45.7,25.5,28.76,WSW,248,6.2,6.2,45,0.00,CLR,,0.00,WeatherDisplay:10.37,2013-10-27 15:37:00,
2013-10-27 10:39:00,45.9,26.2,28.76,WSW,248,8.1,8.1,46,0.00,CLR,,0.00,WeatherDisplay:10.37,2013-10-27 15:39:00,
2013-10-27 10:40:00,45.9,26.2,28.76,West,270,6.9,6.9,46,0.00,CLR,,0.00,WeatherDisplay:10.37,2013-10-27 15:40:00,
2013-10-27 10:41:00,46.2,26.0,28.76,SSW,202,6.9,6.9,45,0.00,CLR,,0.00,WeatherDisplay:10.37,2013-10-27 15:41:00,
2013-10-27 10:42:00,46.6,26.9,28.76,West,270,5.8,5.8,46,0.00,CLR,,0.00,WeatherDisplay:10.37,2013-10-27 15:42:00,
2013-10-27 10:43:00,46.4,25.6,28.76,SW,225,12.5,12.5,44,0.00,CLR,,0.00,WeatherDisplay:10.37,2013-10-27 15:43:00,
2013-10-27 10:44:00,46.2,25.5,28.76,WSW,248,12.7,12.7,44,0.00,CLR,,0.00,WeatherDisplay:10.37,2013-10-27 15:44:00,
2013-10-27 10:45:00,46.0,25.3,28.76,SSW,202,9.2,9.2,44,0.00,CLR,,0.00,WeatherDisplay:10.37,2013-10-27 15:45:00,
2013-10-27 10:46:00,45.9,24.6,28.76,SW,225,12.7,12.7,43,0.00,CLR,,0.00,WeatherDisplay:10.37,2013-10-27 15:46:00,
2013-10-27 10:48:00,46.2,25.5,28.76,ESE,112,12.7,12.7,44,0.00,CLR,,0.00,WeatherDisplay:10.37,2013-10-27 15:48:00,
2013-10-27 10:50:00,46.2,25.5,28.76,West,270,8.1,8.1,44,0.00,CLR,,0.00,WeatherDisplay:10.37,2013-10-27 15:50:00,
2013-10-27 10:51:00,46.2,25.5,28.76,WNW,292,12.1,12.1,44,0.00,CLR,,0.00,WeatherDisplay:10.37,2013-10-27 15:51:00,
2013-10-27 10:52:00,46.2,25.5,28.76,West,270,12.7,12.7,44,0.00,CLR,,0.00,WeatherDisplay:10.37,2013-10-27 15:52:00,
2013-10-27 10:53:00,46.9,26.1,28.76,NE,45,4.6,4.6,44,0.00,CLR,,0.00,WeatherDisplay:10.37,2013-10-27 15:53:00,
2013-10-27 10:54:00,47.1,26.3,28.76,SW,225,6.2,6.2,44,0.00,CLR,,0.00,WeatherDisplay:10.37,2013-10-27 15:54:00,
2013-10-27 10:56:00,47.1,25.7,28.76,WNW,292,10.7,10.7,43,0.00,CLR,,0.00,WeatherDisplay:10.37,2013-10-27 15:56:00,
2013-10-27 10:57:00,46.8,25.4,28.76,SSW,202,10.4,10.4,43,0.00,CLR,,0.00,WeatherDisplay:10.37,2013-10-27 15:57:00,
2013-10-27 10:58:00,46.9,25.6,28.76,SE,135,8.7,8.7,43,0.00,CLR,,0.00,WeatherDisplay:10.37,2013-10-27 15:58:00,
2013-10-27 10:59:00,47.3,25.9,28.76,SW,225,9.2,9.2,43,0.00,CLR,,0.00,WeatherDisplay:10.37,2013-10-27 15:59:00,
2013-10-27 11:01:00,47.5,26.1,28.76,WSW,248,5.8,6.7,43,0.00,CLR,,0.00,WeatherDisplay:10.37,2013-10-27 16:01:00,
2013-10-27 11:02:00,47.3,25.3,28.76,NW,315,9.2,9.2,42,0.00,CLR,,0.00,WeatherDisplay:10.37,2013-10-27 16:02:00,
2013-10-27 11:03:00,47.3,25.3,28.76,NNW,338,5.8,5.8,42,0.00,CLR,,0.00,WeatherDisplay:10.37,2013-10-27 16:03:00,
2013-10-27 11:04:00,48.4,26.3,28.76,WSW,248,3.5,3.5,42,0.00,CLR,,0.00,WeatherDisplay:10.37,2013-10-27 16:04:00,
2013-10-27 11:06:00,48.7,26.6,28.76,West,270,5.8,5.8,42,0.00,CLR,,0.00,WeatherDisplay:10.37,2013-10-27 16:06:00,
2013-10-27 11:07:00,48.7,26.6,28.76,West,270,9.2,9.2,42,0.00,CLR,,0.00,WeatherDisplay:10.37,2013-10-27 16:07:00,
2013-10-27 11:08:00,48.6,25.9,28.76,West,270,9.2,9.2,41,0.00,CLR,,0.00,WeatherDisplay:10.37,2013-10-27 16:08:00,
2013-10-27 11:09:00,48.7,26.1,28.73,WSW,248,8.1,8.1,41,0.00,CLR,,0.00,WeatherDisplay:10.37,2013-10-27 16:09:00,
2013-10-27 11:12:00,48.7,26.1,28.73,SSW,202,4.6,4.6,41,0.00,CLR,,0.00,WeatherDisplay:10.37,2013-10-27 16:12:00,
2013-10-27 11:13:00,49.1,26.4,28.73,SSW,202,4.6,4.6,41,0.00,CLR,,0.00,WeatherDisplay:10.37,2013-10-27 16:13:00,
2013-10-27 11:14:00,48.6,25.3,28.73,SSE,158,8.1,8.1,40,0.00,CLR,,0.00,WeatherDisplay:10.37,2013-10-27 16:14:00,
2013-10-27 11:17:00,48.4,25.1,28.73,SSW,202,5.8,5.8,40,0.00,CLR,,0.00,WeatherDisplay:10.37,2013-10-27 16:17:00,
2013-10-27 11:18:00,48.4,25.1,28.73,SW,225,6.9,6.9,40,0.00,CLR,,0.00,WeatherDisplay:10.37,2013-10-27 16:18:00,
2013-10-27 11:19:00,48.9,26.2,28.73,SW,225,5.8,5.8,41,0.00,CLR,,0.00,WeatherDisplay:10.37,2013-10-27 16:19:00,
2013-10-27 11:22:00,48.7,25.5,28.73,North,0,8.1,8.1,40,0.00,CLR,,0.00,WeatherDisplay:10.37,2013-10-27 16:22:00,
2013-10-27 11:23:00,48.7,25.5,28.73,SSW,202,8.1,8.1,40,0.00,CLR,,0.00,WeatherDisplay:10.37,2013-10-27 16:23:00,
2013-10-27 11:25:00,48.9,25.6,28.73,SSE,158,6.9,6.9,40,0.00,CLR,,0.00,WeatherDisplay:10.37,2013-10-27 16:25:00,
2013-10-27 11:27:00,49.1,26.4,28.73,SW,225,7.6,7.6,41,0.00,CLR,,0.00,WeatherDisplay:10.37,2013-10-27 16:27:00,
2013-10-27 11:28:00,49.1,26.4,28.73,SSW,202,8.1,8.1,41,0.00,CLR,,0.00,WeatherDisplay:10.37,2013-10-27 16:28:00,
2013-10-27 11:30:00,49.3,26.0,28.73,SSW,202,5.8,5.8,40,0.00,CLR,,0.00,WeatherDisplay:10.37,2013-10-27 16:30:00,
2013-10-27 11:32:00,49.6,26.9,28.73,SSE,158,8.1,8.1,41,0.00,CLR,,0.00,WeatherDisplay:10.37,2013-10-27 16:32:00,
2013-10-27 11:33:00,49.5,26.1,28.73,WSW,248,5.8,5.8,40,0.00,CLR,,0.00,WeatherDisplay:10.37,2013-10-27 16:33:00,
2013-10-27 11:34:00,49.5,26.7,28.73,North,0,8.1,8.1,41,0.00,CLR,,0.00,WeatherDisplay:10.37,2013-10-27 16:34:00,
2013-10-27 11:35:00,49.5,26.1,28.73,SSW,202,8.1,8.1,40,0.00,CLR,,0.00,WeatherDisplay:10.37,2013-10-27 16:35:00,
2013-10-27 11:38:00,49.8,26.4,28.73,South,180,4.6,4.6,40,0.00,CLR,,0.00,WeatherDisplay:10.37,2013-10-27 16:38:00,
2013-10-27 11:39:00,49.8,27.0,28.73,East,90,5.8,5.8,41,0.00,CLR,,0.00,WeatherDisplay:10.37,2013-10-27 16:39:00,
2013-10-27 11:40:00,49.8,26.4,28.76,SSW,202,5.8,5.8,40,0.00,CLR,,0.00,WeatherDisplay:10.37,2013-10-27 16:40:00,
2013-10-27 11:43:00,49.8,26.4,28.76,SSE,158,8.1,8.1,40,0.00,CLR,,0.00,WeatherDisplay:10.37,2013-10-27 16:43:00,
2013-10-27 11:44:00,49.8,26.4,28.76,SW,225,8.1,8.1,40,0.00,CLR,,0.00,WeatherDisplay:10.37,2013-10-27 16:44:00,
2013-10-27 11:45:00,49.8,26.4,28.76,South,180,6.9,6.9,40,0.00,CLR,,0.00,WeatherDisplay:10.37,2013-10-27 16:45:00,
2013-10-27 11:48:00,50.2,26.8,28.76,East,90,5.8,5.8,40,0.00,CLR,,0.00,WeatherDisplay:10.37,2013-10-27 16:48:00,
2013-10-27 11:49:00,50.2,26.8,28.76,South,180,6.0,6.0,40,0.00,CLR,,0.00,WeatherDisplay:10.37,2013-10-27 16:49:00,
2013-10-27 11:50:00,50.2,26.1,28.76,SSW,202,5.8,5.8,39,0.00,CLR,,0.00,WeatherDisplay:10.37,2013-10-27 16:50:00,
2013-10-27 11:53:00,50.4,26.3,28.76,SW,225,8.1,8.1,39,0.00,CLR,,0.00,WeatherDisplay:10.37,2013-10-27 16:53:00,
2013-10-27 11:54:00,50.5,26.5,28.76,SSW,202,3.5,3.5,39,0.00,CLR,,0.00,WeatherDisplay:10.37,2013-10-27 16:54:00,
2013-10-27 11:55:00,50.7,26.6,28.73,WNW,292,5.8,5.8,39,0.00,CLR,,0.00,WeatherDisplay:10.37,2013-10-27 16:55:00,
2013-10-27 11:58:00,50.9,26.8,28.73,South,180,6.0,6.0,39,0.00,CLR,,0.00,WeatherDisplay:10.37,2013-10-27 16:58:00,
2013-10-27 11:59:00,50.9,26.8,28.73,WNW,292,5.8,5.8,39,0.00,CLR,,0.00,WeatherDisplay:10.37,2013-10-27 16:59:00,
2013-10-27 12:00:00,50.9,26.8,28.73,SW,225,5.9,5.9,39,0.00,CLR,,0.00,WeatherDisplay:10.37,2013-10-27 17:00:00,
2013-10-27 12:03:00,51.1,26.3,28.73,SSW,202,4.6,4.6,38,0.00,CLR,,0.00,WeatherDisplay:10.37,2013-10-27 17:03:00,
2013-10-27 12:04:00,51.1,26.3,28.73,SW,225,5.4,5.4,38,0.00,CLR,,0.00,WeatherDisplay:10.37,2013-10-27 17:04:00,
2013-10-27 12:05:00,51.1,26.3,28.73,SW,225,5.8,5.8,38,0.00,CLR,,0.00,WeatherDisplay:10.37,2013-10-27 17:05:00,
2013-10-27 12:06:00,51.3,26.5,28.73,WSW,248,6.7,6.7,38,0.00,CLR,,0.00,WeatherDisplay:10.37,2013-10-27 17:06:00,
2013-10-27 12:09:00,51.6,26.8,28.73,South,180,5.8,5.8,38,0.00,CLR,,0.00,WeatherDisplay:10.37,2013-10-27 17:09:00,
2013-10-27 12:10:00,51.6,26.8,28.70,NE,45,8.1,8.1,38,0.00,CLR,,0.00,WeatherDisplay:10.37,2013-10-27 17:10:00,
2013-10-27 12:11:00,51.3,25.8,28.70,SSW,202,10.4,10.4,37,0.00,CLR,,0.00,WeatherDisplay:10.37,2013-10-27 17:11:00,
2013-10-27 12:14:00,51.4,26.6,28.70,North,0,12.7,12.7,38,0.00,CLR,,0.00,WeatherDisplay:10.37,2013-10-27 17:14:00,
2013-10-27 12:15:00,51.6,26.2,28.70,South,180,6.9,6.9,37,0.00,CLR,,0.00,WeatherDisplay:10.37,2013-10-27 17:15:00,
2013-10-27 12:16:00,51.6,26.8,28.70,SSW,202,4.9,4.9,38,0.00,CLR,,0.00,WeatherDisplay:10.37,2013-10-27 17:16:00,
2013-10-27 12:19:00,51.6,26.2,28.70,SW,225,6.9,6.9,37,0.00,CLR,,0.00,WeatherDisplay:10.37,2013-10-27 17:19:00,
2013-10-27 12:20:00,51.6,26.2,28.70,SSW,202,8.1,8.1,37,0.00,CLR,,0.00,WeatherDisplay:10.37,2013-10-27 17:20:00,
2013-10-27 12:21:00,52.0,26.5,28.70,SW,225,8.1,8.1,37,0.00,CLR,,0.00,WeatherDisplay:10.37,2013-10-27 17:21:00,
2013-10-27 12:22:00,52.0,26.5,28.70,West,270,4.6,4.6,37,0.00,CLR,,0.00,WeatherDisplay:10.37,2013-10-27 17:22:00,
2013-10-27 12:25:00,52.7,27.1,28.73,NNW,338,5.8,5.8,37,0.00,CLR,,0.00,WeatherDisplay:10.37,2013-10-27 17:25:00,
2013-10-27 12:26:00,52.5,27.0,28.73,WSW,248,4.6,4.6,37,0.00,CLR,,0.00,WeatherDisplay:10.37,2013-10-27 17:26:00,
2013-10-27 12:27:00,52.5,27.0,28.73,SSW,202,6.9,6.9,37,0.00,CLR,,0.00,WeatherDisplay:10.37,2013-10-27 17:27:00,
2013-10-27 12:28:00,52.5,27.0,28.73,SW,225,11.5,11.5,37,0.00,CLR,,0.00,WeatherDisplay:10.37,2013-10-27 17:28:00,
2013-10-27 12:30:00,52.5,27.0,28.73,WSW,248,4.6,4.6,37,0.00,CLR,,0.00,WeatherDisplay:10.37,2013-10-27 17:30:00,
2013-10-27 12:31:00,52.9,27.3,28.73,SSW,202,5.8,5.8,37,0.00,CLR,,0.00,WeatherDisplay:10.37,2013-10-27 17:31:00,
2013-10-27 12:32:00,53.1,27.4,28.73,South,180,4.6,4.6,37,0.00,CLR,,0.00,WeatherDisplay:10.37,2013-10-27 17:32:00,
2013-10-27 12:33:00,53.1,27.4,28.73,WSW,248,4.6,4.6,37,0.00,CLR,,0.00,WeatherDisplay:10.37,2013-10-27 17:33:00,
2013-10-27 12:35:00,53.1,27.4,28.73,WSW,248,8.7,8.7,37,0.00,CLR,,0.00,WeatherDisplay:10.37,2013-10-27 17:35:00,
2013-10-27 12:36:00,53.1,27.4,28.73,South,180,9.2,9.2,37,0.00,CLR,,0.00,WeatherDisplay:10.37,2013-10-27 17:36:00,
2013-10-27 12:38:00,52.7,26.5,28.73,SE,135,5.8,5.9,36,0.00,CLR,,0.00,WeatherDisplay:10.37,2013-10-27 17:38:00,
2013-10-27 12:40:00,53.1,26.8,28.70,SSW,202,5.8,5.8,36,0.00,CLR,,0.00,WeatherDisplay:10.37,2013-10-27 17:40:00,
2013-10-27 12:41:00,53.1,26.8,28.70,SW,225,6.9,6.9,36,0.00,CLR,,0.00,WeatherDisplay:10.37,2013-10-27 17:41:00,
2013-10-27 12:43:00,53.2,26.9,28.70,WSW,248,6.9,6.9,36,0.00,CLR,,0.00,WeatherDisplay:10.37,2013-10-27 17:43:00,
2013-10-27 12:44:00,53.2,26.9,28.70,WSW,248,6.9,6.9,36,0.00,CLR,,0.00,WeatherDisplay:10.37,2013-10-27 17:44:00,
2013-10-27 12:45:00,53.2,26.9,28.70,SSE,158,6.9,6.9,36,0.00,CLR,,0.00,WeatherDisplay:10.37,2013-10-27 17:45:00,
2013-10-27 12:46:00,53.4,27.8,28.70,ESE,112,5.8,5.8,37,0.00,CLR,,0.00,WeatherDisplay:10.37,2013-10-27 17:46:00,
2013-10-27 12:47:00,53.4,27.1,28.70,SW,225,5.8,5.8,36,0.00,CLR,,0.00,WeatherDisplay:10.37,2013-10-27 17:47:00,
2013-10-27 12:49:00,53.4,27.1,28.70,NNW,338,6.9,6.9,36,0.00,CLR,,0.00,WeatherDisplay:10.37,2013-10-27 17:49:00,
2013-10-27 12:51:00,53.2,26.9,28.70,SE,135,3.5,3.5,36,0.00,CLR,,0.00,WeatherDisplay:10.37,2013-10-27 17:51:00,
2013-10-27 12:52:00,53.8,27.4,28.70,SW,225,4.6,4.6,36,0.00,CLR,,0.00,WeatherDisplay:10.37,2013-10-27 17:52:00,
2013-10-27 12:54:00,53.1,26.8,28.70,WSW,248,12.7,12.7,36,0.00,CLR,,0.00,WeatherDisplay:10.37,2013-10-27 17:54:00,
2013-10-27 12:55:00,53.1,26.8,28.73,WSW,248,10.4,10.4,36,0.00,CLR,,0.00,WeatherDisplay:10.37,2013-10-27 17:55:00,
2013-10-27 12:56:00,52.9,26.6,28.73,South,180,8.1,8.1,36,0.00,CLR,,0.00,WeatherDisplay:10.37,2013-10-27 17:56:00,
2013-10-27 12:57:00,53.2,26.9,28.73,SSE,158,5.8,5.8,36,0.00,CLR,,0.00,WeatherDisplay:10.37,2013-10-27 17:57:00,
2013-10-27 12:58:00,53.6,27.3,28.73,WNW,292,4.6,4.6,36,0.00,CLR,,0.00,WeatherDisplay:10.37,2013-10-27 17:58:00,
2013-10-27 12:59:00,53.8,27.4,28.73,WNW,292,10.4,10.4,36,0.00,CLR,,0.00,WeatherDisplay:10.37,2013-10-27 17:59:00,
2013-10-27 13:00:00,53.8,27.4,28.73,West,270,10.4,10.4,36,0.00,CLR,,0.00,WeatherDisplay:10.37,2013-10-27 18:00:00,
2013-10-27 13:01:00,53.6,26.6,28.73,SSE,158,5.8,5.8,35,0.00,CLR,,0.00,WeatherDisplay:10.37,2013-10-27 18:01:00,
2013-10-27 13:02:00,53.4,27.1,28.73,SSE,158,8.1,8.1,36,0.00,CLR,,0.00,WeatherDisplay:10.37,2013-10-27 18:02:00,
2013-10-27 13:03:00,53.8,26.7,28.73,NW,315,8.1,8.1,35,0.00,CLR,,0.00,WeatherDisplay:10.37,2013-10-27 18:03:00,
2013-10-27 13:04:00,54.3,27.9,28.73,WSW,248,2.3,2.4,36,0.00,CLR,,0.00,WeatherDisplay:10.37,2013-10-27 18:04:00,
2013-10-27 13:06:00,54.7,28.2,28.73,SW,225,4.6,4.6,36,0.00,CLR,,0.00,WeatherDisplay:10.37,2013-10-27 18:06:00,
2013-10-27 13:07:00,55.0,28.5,28.73,SSW,202,3.6,3.6,36,0.00,CLR,,0.00,WeatherDisplay:10.37,2013-10-27 18:07:00,
2013-10-27 13:08:00,55.0,28.5,28.73,SE,135,7.8,7.8,36,0.00,CLR,,0.00,WeatherDisplay:10.37,2013-10-27 18:08:00,
2013-10-27 13:09:00,54.3,27.2,28.70,South,180,8.1,8.1,35,0.00,CLR,,0.00,WeatherDisplay:10.37,2013-10-27 18:09:00,
2013-10-27 13:11:00,54.0,26.2,28.70,WSW,248,9.2,9.2,34,0.00,CLR,,0.00,WeatherDisplay:10.37,2013-10-27 18:11:00,
2013-10-27 13:12:00,54.0,26.9,28.70,West,270,5.8,5.8,35,0.00,CLR,,0.00,WeatherDisplay:10.37,2013-10-27 18:12:00,
2013-10-27 13:13:00,54.5,27.4,28.70,SSW,202,6.9,6.9,35,0.00,CLR,,0.00,WeatherDisplay:10.37,2013-10-27 18:13:00,
2013-10-27 13:15:00,54.9,27.7,28.70,SE,135,2.3,2.3,35,0.00,CLR,,0.00,WeatherDisplay:10.37,2013-10-27 18:15:00,
2013-10-27 13:16:00,55.4,28.2,28.70,NW,315,3.5,3.5,35,0.00,CLR,,0.00,WeatherDisplay:10.37,2013-10-27 18:16:00,
2013-10-27 13:17:00,55.0,27.9,28.70,WSW,248,5.9,5.9,35,0.00,CLR,,0.00,WeatherDisplay:10.37,2013-10-27 18:17:00,
2013-10-27 13:18:00,54.9,27.0,28.70,WSW,248,8.7,8.7,34,0.00,CLR,,0.00,WeatherDisplay:10.37,2013-10-27 18:18:00,
2013-10-27 13:20:00,54.9,27.0,28.70,NW,315,5.8,5.8,34,0.00,CLR,,0.00,WeatherDisplay:10.37,2013-10-27 18:20:00,
2013-10-27 13:21:00,55.0,27.1,28.70,ESE,112,5.8,5.8,34,0.00,CLR,,0.00,WeatherDisplay:10.37,2013-10-27 18:21:00,
2013-10-27 13:22:00,55.0,27.1,28.70,West,270,4.6,4.6,34,0.00,CLR,,0.00,WeatherDisplay:10.37,2013-10-27 18:22:00,
2013-10-27 13:23:00,55.0,27.1,28.70,South,180,4.6,4.6,34,0.00,CLR,,0.00,WeatherDisplay:10.37,2013-10-27 18:23:00,
2013-10-27 13:25:00,54.5,26.7,28.67,SW,225,5.8,5.8,34,0.00,CLR,,0.00,WeatherDisplay:10.37,2013-10-27 18:25:00,
2013-10-27 13:26:00,54.5,26.7,28.67,SSW,202,6.4,6.4,34,0.00,CLR,,0.00,WeatherDisplay:10.37,2013-10-27 18:26:00,
2013-10-27 13:27:00,54.5,26.7,28.67,SSW,202,6.9,6.9,34,0.00,CLR,,0.00,WeatherDisplay:10.37,2013-10-27 18:27:00,
2013-10-27 13:28:00,54.5,27.4,28.67,SSE,158,9.8,9.8,35,0.00,CLR,,0.00,WeatherDisplay:10.37,2013-10-27 18:28:00,
2013-10-27 13:29:00,54.5,27.4,28.67,ENE,68,9.2,9.2,35,0.00,CLR,,0.00,WeatherDisplay:10.37,2013-10-27 18:29:00,
2013-10-27 13:30:00,54.1,26.4,28.67,SSW,202,8.1,8.1,34,0.00,CLR,,0.00,WeatherDisplay:10.37,2013-10-27 18:30:00,
2013-10-27 13:31:00,54.1,25.6,28.67,South,180,8.1,8.1,33,0.00,CLR,,0.00,WeatherDisplay:10.37,2013-10-27 18:31:00,
2013-10-27 13:32:00,54.1,26.4,28.67,SSW,202,6.9,6.9,34,0.00,CLR,,0.00,WeatherDisplay:10.37,2013-10-27 18:32:00,
2013-10-27 13:33:00,54.3,26.5,28.67,SSE,158,6.9,6.9,34,0.00,CLR,,0.00,WeatherDisplay:10.37,2013-10-27 18:33:00,
2013-10-27 13:34:00,54.7,26.8,28.67,SW,225,5.8,5.8,34,0.00,CLR,,0.00,WeatherDisplay:10.37,2013-10-27 18:34:00,
2013-10-27 13:35:00,54.9,27.7,28.67,South,180,6.9,6.9,35,0.00,CLR,,0.00,WeatherDisplay:10.37,2013-10-27 18:35:00,
2013-10-27 13:37:00,54.9,27.0,28.67,SW,225,6.9,6.9,34,0.00,CLR,,0.00,WeatherDisplay:10.37,2013-10-27 18:37:00,
2013-10-27 13:38:00,55.0,27.9,28.67,WNW,292,8.1,8.1,35,0.00,CLR,,0.00,WeatherDisplay:10.37,2013-10-27 18:38:00,
2013-10-27 13:39:00,55.4,27.5,28.67,West,270,4.6,4.6,34,0.00,CLR,,0.00,WeatherDisplay:10.37,2013-10-27 18:39:00,
2013-10-27 13:41:00,55.4,26.7,28.67,North,0,5.8,5.8,33,0.00,CLR,,0.00,WeatherDisplay:10.37,2013-10-27 18:41:00,
2013-10-27 13:42:00,55.4,27.5,28.67,West,270,3.5,3.5,34,0.00,CLR,,0.00,WeatherDisplay:10.37,2013-10-27 18:42:00,
2013-10-27 13:43:00,54.9,26.3,28.67,West,270,9.2,9.2,33,0.00,CLR,,0.00,WeatherDisplay:10.37,2013-10-27 18:43:00,
2013-10-27 13:44:00,55.0,26.4,28.67,WSW,248,9.8,9.8,33,0.00,CLR,,0.00,WeatherDisplay:10.37,2013-10-27 18:44:00,
2013-10-27 13:47:00,54.9,26.3,28.67,WSW,248,5.8,5.8,33,0.00,CLR,,0.00,WeatherDisplay:10.37,2013-10-27 18:47:00,
2013-10-27 13:48:00,54.7,26.1,28.67,SSW,202,5.8,5.8,33,0.00,CLR,,0.00,WeatherDisplay:10.37,2013-10-27 18:48:00,
2013-10-27 13:49:00,55.0,27.1,28.67,SW,225,4.6,4.6,34,0.00,CLR,,0.00,WeatherDisplay:10.37,2013-10-27 18:49:00,
2013-10-27 13:52:00,55.8,27.8,28.67,SSW,202,4.6,4.6,34,0.00,CLR,,0.00,WeatherDisplay:10.37,2013-10-27 18:52:00,
2013-10-27 13:54:00,55.8,27.1,28.67,West,270,5.8,5.8,33,0.00,CLR,,0.00,WeatherDisplay:10.37,2013-10-27 18:54:00,
2013-10-27 13:55:00,55.9,27.2,28.67,SSW,202,4.6,4.6,33,0.00,CLR,,0.00,WeatherDisplay:10.37,2013-10-27 18:55:00,
2013-10-27 13:57:00,55.9,27.2,28.67,WSW,248,5.8,5.8,33,0.00,CLR,,0.00,WeatherDisplay:10.37,2013-10-27 18:57:00,
2013-10-27 13:58:00,55.9,27.2,28.67,NW,315,5.8,5.8,33,0.00,CLR,,0.00,WeatherDisplay:10.37,2013-10-27 18:58:00,
2013-10-27 13:59:00,56.1,27.4,28.67,SSW,202,5.9,5.9,33,0.00,CLR,,0.00,WeatherDisplay:10.37,2013-10-27 18:59:00,
2013-10-27 14:00:00,55.6,26.2,28.67,WSW,248,5.8,5.8,32,0.00,CLR,,0.00,WeatherDisplay:10.37,2013-10-27 19:00:00,
2013-10-27 14:01:00,55.4,26.7,28.67,WSW,248,5.8,5.8,33,0.00,CLR,,0.00,WeatherDisplay:10.37,2013-10-27 19:01:00,
2013-10-27 14:02:00,55.2,26.6,28.67,SSW,202,6.9,6.9,33,0.00,CLR,,0.00,WeatherDisplay:10.37,2013-10-27 19:02:00,
2013-10-27 14:03:00,55.2,26.6,28.67,NW,315,6.9,6.9,33,0.00,CLR,,0.00,WeatherDisplay:10.37,2013-10-27 19:03:00,
2013-10-27 14:04:00,55.0,26.4,28.67,WSW,248,5.9,5.9,33,0.00,CLR,,0.00,WeatherDisplay:10.37,2013-10-27 19:04:00,
2013-10-27 14:05:00,55.0,26.4,28.67,WSW,248,8.1,8.1,33,0.00,CLR,,0.00,WeatherDisplay:10.37,2013-10-27 19:05:00,
2013-10-27 14:06:00,54.9,26.3,28.67,West,270,6.9,6.9,33,0.00,CLR,,0.00,WeatherDisplay:10.37,2013-10-27 19:06:00,
2013-10-27 14:07:00,55.4,27.5,28.67,NW,315,3.5,3.5,34,0.00,CLR,,0.00,WeatherDisplay:10.37,2013-10-27 19:07:00,
2013-10-27 14:08:00,55.8,27.8,28.67,NNW,338,3.5,3.5,34,0.00,CLR,,0.00,WeatherDisplay:10.37,2013-10-27 19:08:00,
2013-10-27 14:09:00,55.6,26.9,28.67,SW,225,4.6,4.6,33,0.00,CLR,,0.00,WeatherDisplay:10.37,2013-10-27 19:09:00,
2013-10-27 14:10:00,55.8,27.1,28.67,WSW,248,4.6,4.6,33,0.00,CLR,,0.00,WeatherDisplay:10.37,2013-10-27 19:10:00,
2013-10-27 14:11:00,55.8,27.1,28.67,SW,225,3.6,3.6,33,0.00,CLR,,0.00,WeatherDisplay:10.37,2013-10-27 19:11:00,
2013-10-27 14:13:00,55.6,26.9,28.67,SW,225,5.8,5.8,33,0.00,CLR,,0.00,WeatherDisplay:10.37,2013-10-27 19:13:00,
2013-10-27 14:14:00,55.0,26.4,28.67,SSW,202,5.8,5.8,33,0.00,CLR,,0.00,WeatherDisplay:10.37,2013-10-27 19:14:00,
2013-10-27 14:15:00,55.2,26.6,28.67,SSW,202,5.8,5.8,33,0.00,CLR,,0.00,WeatherDisplay:10.37,2013-10-27 19:15:00,
2013-10-27 14:16:00,55.0,26.4,28.67,NNW,338,6.9,6.9,33,0.00,CLR,,0.00,WeatherDisplay:10.37,2013-10-27 19:16:00,
2013-10-27 14:18:00,55.0,26.4,28.67,South,180,9.2,9.2,33,0.00,CLR,,0.00,WeatherDisplay:10.37,2013-10-27 19:18:00,
2013-10-27 14:19:00,54.7,26.1,28.67,WSW,248,9.2,9.2,33,0.00,CLR,,0.00,WeatherDisplay:10.37,2013-10-27 19:19:00,
2013-10-27 14:21:00,55.0,27.1,28.67,SSW,202,9.2,9.2,34,0.00,CLR,,0.00,WeatherDisplay:10.37,2013-10-27 19:21:00,
2013-10-27 14:22:00,54.9,26.3,28.67,WSW,248,8.1,8.1,33,0.00,CLR,,0.00,WeatherDisplay:10.37,2013-10-27 19:22:00,
2013-10-27 14:23:00,54.9,26.3,28.67,SSW,202,5.8,5.8,33,0.00,CLR,,0.00,WeatherDisplay:10.37,2013-10-27 19:23:00,
2013-10-27 14:24:00,54.9,26.3,28.67,SW,225,11.5,11.5,33,0.00,CLR,,0.00,WeatherDisplay:10.37,2013-10-27 19:24:00,
2013-10-27 14:25:00,54.9,26.3,28.67,SW,225,9.2,9.2,33,0.00,CLR,,0.00,WeatherDisplay:10.37,2013-10-27 19:25:00,
2013-10-27 14:26:00,54.7,26.1,28.67,West,270,8.1,8.1,33,0.00,CLR,,0.00,WeatherDisplay:10.37,2013-10-27 19:26:00,
2013-10-27 14:27:00,54.7,25.4,28.67,SW,225,5.8,5.8,32,0.00,CLR,,0.00,WeatherDisplay:10.37,2013-10-27 19:27:00,
2013-10-27 14:28:00,54.7,25.4,28.67,West,270,5.8,5.8,32,0.00,CLR,,0.00,WeatherDisplay:10.37,2013-10-27 19:28:00,
2013-10-27 14:29:00,54.9,26.3,28.67,South,180,5.8,5.8,33,0.00,CLR,,0.00,WeatherDisplay:10.37,2013-10-27 19:29:00,
2013-10-27 14:30:00,54.9,26.3,28.67,SE,135,5.8,5.8,33,0.00,CLR,,0.00,WeatherDisplay:10.37,2013-10-27 19:30:00,
2013-10-27 14:31:00,55.0,25.7,28.67,WSW,248,4.6,4.7,32,0.00,CLR,,0.00,WeatherDisplay:10.37,2013-10-27 19:31:00,
2013-10-27 14:33:00,55.0,25.7,28.67,West,270,8.1,8.1,32,0.00,CLR,,0.00,WeatherDisplay:10.37,2013-10-27 19:33:00,
2013-10-27 14:34:00,55.0,25.7,28.67,WSW,248,4.6,4.6,32,0.00,CLR,,0.00,WeatherDisplay:10.37,2013-10-27 19:34:00,
2013-10-27 14:35:00,55.2,26.6,28.67,SW,225,5.8,5.8,33,0.00,CLR,,0.00,WeatherDisplay:10.37,2013-10-27 19:35:00,
2013-10-27 14:36:00,55.4,26.7,28.67,South,180,5.9,5.9,33,0.00,CLR,,0.00,WeatherDisplay:10.37,2013-10-27 19:36:00,
2013-10-27 14:38:00,55.6,26.2,28.67,SSE,158,3.6,3.6,32,0.00,CLR,,0.00,WeatherDisplay:10.37,2013-10-27 19:38:00,
2013-10-27 14:39:00,55.6,26.2,28.67,WNW,292,6.9,6.9,32,0.00,CLR,,0.00,WeatherDisplay:10.37,2013-10-27 19:39:00,
2013-10-27 14:41:00,55.6,26.2,28.67,SSW,202,5.8,5.8,32,0.00,CLR,,0.00,WeatherDisplay:10.37,2013-10-27 19:41:00,
2013-10-27 14:42:00,55.8,26.3,28.67,SW,225,4.6,4.6,32,0.00,CLR,,0.00,WeatherDisplay:10.37,2013-10-27 19:42:00,
2013-10-27 14:43:00,55.9,26.5,28.67,SSW,202,6.9,6.9,32,0.00,CLR,,0.00,WeatherDisplay:10.37,2013-10-27 19:43:00,
2013-10-27 14:44:00,55.9,26.5,28.67,South,180,4.9,4.9,32,0.00,CLR,,0.00,WeatherDisplay:10.37,2013-10-27 19:44:00,
2013-10-27 14:45:00,55.9,25.7,28.67,SSW,202,6.9,6.9,31,0.00,CLR,,0.00,WeatherDisplay:10.37,2013-10-27 19:45:00,
2013-10-27 14:46:00,55.9,26.5,28.67,SSW,202,4.6,4.6,32,0.00,CLR,,0.00,WeatherDisplay:10.37,2013-10-27 19:46:00,
2013-10-27 14:47:00,55.9,26.5,28.67,SSE,158,4.6,4.6,32,0.00,CLR,,0.00,WeatherDisplay:10.37,2013-10-27 19:47:00,
2013-10-27 14:49:00,56.1,26.6,28.67,SW,225,4.3,4.3,32,0.00,CLR,,0.00,WeatherDisplay:10.37,2013-10-27 19:49:00,
2013-10-27 14:50:00,56.3,26.8,28.67,SE,135,4.6,4.6,32,0.00,CLR,,0.00,WeatherDisplay:10.37,2013-10-27 19:50:00,
2013-10-27 14:51:00,56.3,26.8,28.67,NNW,338,5.8,5.8,32,0.00,CLR,,0.00,WeatherDisplay:10.37,2013-10-27 19:51:00,
2013-10-27 14:53:00,56.3,26.0,28.67,SW,225,6.9,6.9,31,0.00,CLR,,0.00,WeatherDisplay:10.37,2013-10-27 19:53:00,
2013-10-27 14:54:00,56.3,26.8,28.67,SSW,202,5.8,5.8,32,0.00,CLR,,0.00,WeatherDisplay:10.37,2013-10-27 19:54:00,
2013-10-27 14:55:00,56.5,26.2,28.64,SSE,158,4.9,4.9,31,0.00,CLR,,0.00,WeatherDisplay:10.37,2013-10-27 19:55:00,
2013-10-27 14:56:00,56.3,26.0,28.64,SSE,158,6.9,6.9,31,0.00,CLR,,0.00,WeatherDisplay:10.37,2013-10-27 19:56:00,
2013-10-27 14:58:00,56.5,26.2,28.64,West,270,4.6,4.6,31,0.00,CLR,,0.00,WeatherDisplay:10.37,2013-10-27 19:58:00,
2013-10-27 14:59:00,56.5,26.2,28.64,SSW,207,3.0,8.0,31,0.00,CLR,,0.00,WeatherDisplay:10.37,2013-10-27 19:59:00,
2013-10-27 15:00:00,56.7,26.3,28.64,SSW,202,8.1,8.1,31,0.00,CLR,,0.00,WeatherDisplay:10.37,2013-10-27 20:00:00,
2013-10-27 15:01:00,56.3,25.2,28.64,South,180,8.1,8.1,30,0.00,CLR,,0.00,WeatherDisplay:10.37,2013-10-27 20:01:00,
2013-10-27 15:02:00,56.3,25.2,28.64,SE,135,9.2,9.2,30,0.00,CLR,,0.00,WeatherDisplay:10.37,2013-10-27 20:02:00,
2013-10-27 15:03:00,56.1,25.1,28.64,SSW,202,9.2,9.2,30,0.00,CLR,,0.00,WeatherDisplay:10.37,2013-10-27 20:03:00,
2013-10-27 15:05:00,56.3,25.2,28.64,East,90,5.9,5.9,30,0.00,CLR,,0.00,WeatherDisplay:10.37,2013-10-27 20:05:00,
2013-10-27 15:06:00,56.3,25.2,28.64,WSW,248,5.8,5.8,30,0.00,CLR,,0.00,WeatherDisplay:10.37,2013-10-27 20:06:00,
2013-10-27 15:08:00,56.3,25.2,28.64,WSW,248,5.9,5.9,30,0.00,CLR,,0.00,WeatherDisplay:10.37,2013-10-27 20:08:00,
2013-10-27 15:10:00,56.7,25.5,28.64,South,180,6.9,6.9,30,0.00,CLR,,0.00,WeatherDisplay:10.37,2013-10-27 20:10:00,
2013-10-27 15:12:00,56.5,25.4,28.64,SSW,202,9.2,9.2,30,0.00,CLR,,0.00,WeatherDisplay:10.37,2013-10-27 20:12:00,
2013-10-27 15:13:00,56.3,24.4,28.64,SSW,202,9.2,9.2,29,0.00,CLR,,0.00,WeatherDisplay:10.37,2013-10-27 20:13:00,
2013-10-27 15:15:00,56.5,25.4,28.64,SW,225,4.6,4.6,30,0.00,CLR,,0.00,WeatherDisplay:10.37,2013-10-27 20:15:00,
2013-10-27 15:16:00,56.7,25.5,28.64,SSW,202,6.9,6.9,30,0.00,CLR,,0.00,WeatherDisplay:10.37,2013-10-27 20:16:00,
2013-10-27 15:17:00,56.7,25.5,28.64,SSW,202,6.9,6.9,30,0.00,CLR,,0.00,WeatherDisplay:10.37,2013-10-27 20:17:00,
2013-10-27 15:18:00,56.8,25.7,28.64,SW,225,6.9,6.9,30,0.00,CLR,,0.00,WeatherDisplay:10.37,2013-10-27 20:18:00,
2013-10-27 15:20:00,56.7,24.7,28.64,SSW,202,6.9,6.9,29,0.00,CLR,,0.00,WeatherDisplay:10.37,2013-10-27 20:20:00,
2013-10-27 15:21:00,56.8,25.7,28.64,SSW,202,3.6,3.6,30,0.00,CLR,,0.00,WeatherDisplay:10.37,2013-10-27 20:21:00,
2013-10-27 15:22:00,57.0,25.9,28.64,WSW,248,6.0,6.0,30,0.00,CLR,,0.00,WeatherDisplay:10.37,2013-10-27 20:22:00,
2013-10-27 15:23:00,57.0,25.9,28.64,South,180,5.8,5.8,30,0.00,CLR,,0.00,WeatherDisplay:10.37,2013-10-27 20:23:00,
2013-10-27 15:24:00,56.8,25.7,28.64,SSW,202,8.1,8.1,30,0.00,CLR,,0.00,WeatherDisplay:10.37,2013-10-27 20:24:00,
2013-10-27 15:25:00,56.8,24.9,28.64,WSW,248,6.0,6.0,29,0.00,CLR,,0.00,WeatherDisplay:10.37,2013-10-27 20:25:00,
2013-10-27 15:26:00,56.7,24.7,28.64,West,270,6.9,6.9,29,0.00,CLR,,0.00,WeatherDisplay:10.37,2013-10-27 20:26:00,
2013-10-27 15:27:00,56.7,24.7,28.64,SSW,202,4.6,4.6,29,0.00,CLR,,0.00,WeatherDisplay:10.37,2013-10-27 20:27:00,
2013-10-27 15:28:00,56.7,24.7,28.64,SSW,202,4.6,4.6,29,0.00,CLR,,0.00,WeatherDisplay:10.37,2013-10-27 20:28:00,
2013-10-27 15:29:00,56.8,24.9,28.64,WSW,248,3.8,3.8,29,0.00,CLR,,0.00,WeatherDisplay:10.37,2013-10-27 20:29:00,
2013-10-27 15:30:00,56.8,24.9,28.64,SSW,202,8.1,8.1,29,0.00,CLR,,0.00,WeatherDisplay:10.37,2013-10-27 20:30:00,
2013-10-27 15:31:00,56.8,24.9,28.64,WSW,248,9.7,9.7,29,0.00,CLR,,0.00,WeatherDisplay:10.37,2013-10-27 20:31:00,
2013-10-27 15:33:00,56.8,24.9,28.64,WSW,248,9.2,9.2,29,0.00,CLR,,0.00,WeatherDisplay:10.37,2013-10-27 20:33:00,
2013-10-27 15:34:00,57.0,25.0,28.64,SE,135,5.8,5.8,29,0.00,CLR,,0.00,WeatherDisplay:10.37,2013-10-27 20:34:00,
2013-10-27 15:35:00,57.0,25.0,28.64,NNW,338,9.2,9.2,29,0.00,CLR,,0.00,WeatherDisplay:10.37,2013-10-27 20:35:00,
2013-10-27 15:37:00,57.0,25.0,28.64,SW,225,8.1,8.1,29,0.00,CLR,,0.00,WeatherDisplay:10.37,2013-10-27 20:37:00,
2013-10-27 15:38:00,57.2,25.2,28.64,South,180,6.9,6.9,29,0.00,CLR,,0.00,WeatherDisplay:10.37,2013-10-27 20:38:00,
2013-10-27 15:39:00,57.2,25.2,28.64,ESE,112,5.8,5.8,29,0.00,CLR,,0.00,WeatherDisplay:10.37,2013-10-27 20:39:00,
2013-10-27 15:40:00,57.4,25.3,28.64,WSW,248,5.8,5.8,29,0.00,CLR,,0.00,WeatherDisplay:10.37,2013-10-27 20:40:00,
2013-10-27 15:41:00,57.2,24.3,28.64,South,180,5.8,5.8,28,0.00,CLR,,0.00,WeatherDisplay:10.37,2013-10-27 20:41:00,
2013-10-27 15:42:00,57.2,24.3,28.64,WNW,292,5.8,5.9,28,0.00,CLR,,0.00,WeatherDisplay:10.37,2013-10-27 20:42:00,
2013-10-27 15:44:00,57.6,25.5,28.64,South,180,5.9,5.9,29,0.00,CLR,,0.00,WeatherDisplay:10.37,2013-10-27 20:44:00,
2013-10-27 15:46:00,57.7,25.7,28.64,SSW,202,5.8,5.8,29,0.00,CLR,,0.00,WeatherDisplay:10.37,2013-10-27 20:46:00,
2013-10-27 15:47:00,57.6,24.7,28.64,South,180,5.8,5.8,28,0.00,CLR,,0.00,WeatherDisplay:10.37,2013-10-27 20:47:00,
2013-10-27 15:49:00,57.6,24.7,28.64,North,0,6.9,6.9,28,0.00,CLR,,0.00,WeatherDisplay:10.37,2013-10-27 20:49:00,
2013-10-27 15:51:00,57.9,25.8,28.64,South,180,6.9,6.9,29,0.00,CLR,,0.00,WeatherDisplay:10.37,2013-10-27 20:51:00,
2013-10-27 15:52:00,57.7,24.8,28.64,SSW,202,7.6,7.6,28,0.00,CLR,,0.00,WeatherDisplay:10.37,2013-10-27 20:52:00,
2013-10-27 15:54:00,57.7,24.8,28.64,SW,225,8.1,8.1,28,0.00,CLR,,0.00,WeatherDisplay:10.37,2013-10-27 20:54:00,
2013-10-27 15:56:00,57.9,25.0,28.64,NNW,338,4.6,4.6,28,0.00,CLR,,0.00,WeatherDisplay:10.37,2013-10-27 20:56:00,
2013-10-27 15:58:00,58.3,25.3,28.64,NW,315,7.6,7.6,28,0.00,CLR,,0.00,WeatherDisplay:10.37,2013-10-27 20:58:00,
2013-10-27 15:59:00,58.5,25.4,28.64,WSW,248,8.1,8.1,28,0.00,CLR,,0.00,WeatherDisplay:10.37,2013-10-27 20:59:00,
2013-10-27 16:00:00,58.5,25.4,28.64,SSW,202,2.3,2.3,28,0.00,CLR,,0.00,WeatherDisplay:10.37,2013-10-27 21:00:00,
2013-10-27 16:01:00,58.8,25.7,28.64,South,180,2.3,2.3,28,0.00,CLR,,0.00,WeatherDisplay:10.37,2013-10-27 21:01:00,
2013-10-27 16:02:00,58.8,25.7,28.64,South,180,4.6,4.6,28,0.00,CLR,,0.00,WeatherDisplay:10.37,2013-10-27 21:02:00,
2013-10-27 16:03:00,58.6,25.6,28.64,SSW,202,5.6,5.6,28,0.00,CLR,,0.00,WeatherDisplay:10.37,2013-10-27 21:03:00,
2013-10-27 16:05:00,58.3,25.3,28.64,WSW,248,6.9,6.9,28,0.00,CLR,,0.00,WeatherDisplay:10.37,2013-10-27 21:05:00,
2013-10-27 16:06:00,58.5,25.4,28.64,WNW,292,2.3,2.4,28,0.00,CLR,,0.00,WeatherDisplay:10.37,2013-10-27 21:06:00,
2013-10-27 16:07:00,58.5,25.4,28.64,WNW,292,2.3,2.4,28,0.00,CLR,,0.00,WeatherDisplay:10.37,2013-10-27 21:07:00,
2013-10-27 16:09:00,58.8,25.7,28.64,SW,225,5.8,5.8,28,0.00,CLR,,0.00,WeatherDisplay:10.37,2013-10-27 21:09:00,
2013-10-27 16:10:00,58.8,25.7,28.64,SSW,202,3.5,3.5,28,0.00,CLR,,0.00,WeatherDisplay:10.37,2013-10-27 21:10:00,
2013-10-27 16:12:00,58.6,24.7,28.64,West,270,5.8,5.8,27,0.00,CLR,,0.00,WeatherDisplay:10.37,2013-10-27 21:12:00,
2013-10-27 16:14:00,58.8,24.9,28.64,SSW,202,6.9,6.9,27,0.00,CLR,,0.00,WeatherDisplay:10.37,2013-10-27 21:14:00,
2013-10-27 16:15:00,58.5,24.6,28.64,WSW,248,6.9,6.9,27,0.00,CLR,,0.00,WeatherDisplay:10.37,2013-10-27 21:15:00,
2013-10-27 16:17:00,58.5,25.4,28.64,SSE,158,4.6,4.6,28,0.00,CLR,,0.00,WeatherDisplay:10.37,2013-10-27 21:17:00,
2013-10-27 16:19:00,58.5,25.4,28.64,South,180,3.5,3.5,28,0.00,CLR,,0.00,WeatherDisplay:10.37,2013-10-27 21:19:00,
2013-10-27 16:20:00,58.3,24.4,28.64,SSW,202,5.8,5.8,27,0.00,CLR,,0.00,WeatherDisplay:10.37,2013-10-27 21:20:00,
2013-10-27 16:21:00,58.3,25.3,28.64,SSW,202,5.8,5.8,28,0.00,CLR,,0.00,WeatherDisplay:10.37,2013-10-27 21:21:00,
2013-10-27 16:22:00,58.1,24.3,28.64,South,180,5.8,5.8,27,0.00,CLR,,0.00,WeatherDisplay:10.37,2013-10-27 21:22:00,
2013-10-27 16:24:00,58.1,24.3,28.64,SSW,202,4.6,4.6,27,0.00,CLR,,0.00,WeatherDisplay:10.37,2013-10-27 21:24:00,
2013-10-27 16:25:00,58.3,25.3,28.64,WSW,248,4.6,4.6,28,0.00,CLR,,0.00,WeatherDisplay:10.37,2013-10-27 21:25:00,
2013-10-27 16:26:00,58.3,25.3,28.64,SSE,158,3.5,3.5,28,0.00,CLR,,0.00,WeatherDisplay:10.37,2013-10-27 21:26:00,
2013-10-27 16:27:00,58.5,25.4,28.64,SW,225,4.0,4.0,28,0.00,CLR,,0.00,WeatherDisplay:10.37,2013-10-27 21:27:00,
2013-10-27 16:29:00,58.3,25.3,28.64,SSE,158,5.8,5.8,28,0.00,CLR,,0.00,WeatherDisplay:10.37,2013-10-27 21:29:00,
2013-10-27 16:30:00,58.1,24.3,28.64,SSW,202,5.8,5.8,27,0.00,CLR,,0.00,WeatherDisplay:10.37,2013-10-27 21:30:00,
2013-10-27 16:31:00,58.3,24.4,28.64,SE,135,5.8,5.8,27,0.00,CLR,,0.00,WeatherDisplay:10.37,2013-10-27 21:31:00,
2013-10-27 16:32:00,58.3,24.4,28.64,SSE,158,4.6,4.6,27,0.00,CLR,,0.00,WeatherDisplay:10.37,2013-10-27 21:32:00,
2013-10-27 16:33:00,58.1,24.3,28.64,South,180,4.6,4.6,27,0.00,CLR,,0.00,WeatherDisplay:10.37,2013-10-27 21:33:00,
2013-10-27 16:34:00,58.3,24.4,28.64,SSW,202,4.6,4.6,27,0.00,CLR,,0.00,WeatherDisplay:10.37,2013-10-27 21:34:00,
2013-10-27 16:35:00,58.1,24.3,28.64,South,180,3.5,3.5,27,0.00,CLR,,0.00,WeatherDisplay:10.37,2013-10-27 21:35:00,
2013-10-27 16:37:00,58.1,24.3,28.64,SW,225,3.5,3.5,27,0.00,CLR,,0.00,WeatherDisplay:10.37,2013-10-27 21:37:00,
2013-10-27 16:38:00,58.5,24.6,28.64,WNW,292,2.6,2.6,27,0.00,CLR,,0.00,WeatherDisplay:10.37,2013-10-27 21:38:00,
2013-10-27 16:39:00,58.5,24.6,28.64,SSE,158,4.6,4.6,27,0.00,CLR,,0.00,WeatherDisplay:10.37,2013-10-27 21:39:00,
2013-10-27 16:41:00,58.5,24.6,28.64,West,270,3.6,3.6,27,0.00,CLR,,0.00,WeatherDisplay:10.37,2013-10-27 21:41:00,
2013-10-27 16:42:00,58.3,24.4,28.64,SSW,202,5.8,5.8,27,0.00,CLR,,0.00,WeatherDisplay:10.37,2013-10-27 21:42:00,
2013-10-27 16:43:00,58.1,24.3,28.64,ESE,112,5.8,5.8,27,0.00,CLR,,0.00,WeatherDisplay:10.37,2013-10-27 21:43:00,
2013-10-27 16:45:00,58.1,24.3,28.64,WSW,248,8.1,8.1,27,0.00,CLR,,0.00,WeatherDisplay:10.37,2013-10-27 21:45:00,
2013-10-27 16:46:00,58.1,24.3,28.64,SSE,158,5.8,5.8,27,0.00,CLR,,0.00,WeatherDisplay:10.37,2013-10-27 21:46:00,
2013-10-27 16:47:00,57.9,24.1,28.64,WSW,248,5.8,5.8,27,0.00,CLR,,0.00,WeatherDisplay:10.37,2013-10-27 21:47:00,
2013-10-27 16:48:00,57.9,24.1,28.64,WSW,248,5.8,5.8,27,0.00,CLR,,0.00,WeatherDisplay:10.37,2013-10-27 21:48:00,
2013-10-27 16:50:00,57.9,24.1,28.64,South,180,4.6,4.6,27,0.00,CLR,,0.00,WeatherDisplay:10.37,2013-10-27 21:50:00,
2013-10-27 16:52:00,57.9,24.1,28.64,South,180,4.6,4.6,27,0.00,CLR,,0.00,WeatherDisplay:10.37,2013-10-27 21:52:00,
2013-10-27 16:53:00,57.9,24.1,28.64,SW,225,4.6,4.6,27,0.00,CLR,,0.00,WeatherDisplay:10.37,2013-10-27 21:53:00,
2013-10-27 16:54:00,57.7,23.9,28.64,SW,225,4.6,4.6,27,0.00,CLR,,0.00,WeatherDisplay:10.37,2013-10-27 21:54:00,
2013-10-27 16:55:00,57.9,24.1,28.64,WSW,248,4.6,4.6,27,0.00,CLR,,0.00,WeatherDisplay:10.37,2013-10-27 21:55:00,
2013-10-27 16:57:00,57.9,25.0,28.64,WSW,248,3.8,3.8,28,0.00,CLR,,0.00,WeatherDisplay:10.37,2013-10-27 21:57:00,
2013-10-27 16:58:00,57.9,25.0,28.64,SSW,202,3.5,3.5,28,0.00,CLR,,0.00,WeatherDisplay:10.37,2013-10-27 21:58:00,
2013-10-27 16:59:00,57.7,24.8,28.64,South,180,3.6,3.6,28,0.00,CLR,,0.00,WeatherDisplay:10.37,2013-10-27 21:59:00,
2013-10-27 17:00:00,57.6,24.7,28.64,WNW,292,3.5,3.5,28,0.00,CLR,,0.00,WeatherDisplay:10.37,2013-10-27 22:00:00,
2013-10-27 17:02:00,57.7,24.8,28.64,South,180,3.5,3.5,28,0.00,CLR,,0.00,WeatherDisplay:10.37,2013-10-27 22:02:00,
2013-10-27 17:03:00,57.6,24.7,28.64,West,270,3.5,3.5,28,0.00,CLR,,0.00,WeatherDisplay:10.37,2013-10-27 22:03:00,
2013-10-27 17:04:00,57.6,24.7,28.64,SW,225,3.6,3.6,28,0.00,CLR,,0.00,WeatherDisplay:10.37,2013-10-27 22:04:00,
2013-10-27 17:05:00,57.6,24.7,28.64,West,270,3.5,3.5,28,0.00,CLR,,0.00,WeatherDisplay:10.37,2013-10-27 22:05:00,
2013-10-27 17:08:00,57.6,24.7,28.64,South,180,2.9,2.9,28,0.00,CLR,,0.00,WeatherDisplay:10.37,2013-10-27 22:08:00,
2013-10-27 17:09:00,57.2,23.5,28.64,NW,315,4.6,4.6,27,0.00,CLR,,0.00,WeatherDisplay:10.37,2013-10-27 22:09:00,
2013-10-27 17:10:00,57.2,23.5,28.64,South,180,4.6,4.6,27,0.00,CLR,,0.00,WeatherDisplay:10.37,2013-10-27 22:10:00,
2013-10-27 17:13:00,57.2,24.3,28.64,WSW,248,2.3,2.3,28,0.00,CLR,,0.00,WeatherDisplay:10.37,2013-10-27 22:13:00,
2013-10-27 17:14:00,57.2,24.3,28.64,South,180,6.9,6.9,28,0.00,CLR,,0.00,WeatherDisplay:10.37,2013-10-27 22:14:00,
2013-10-27 17:15:00,56.8,24.0,28.64,SW,225,6.9,6.9,28,0.00,CLR,,0.00,WeatherDisplay:10.37,2013-10-27 22:15:00,
2013-10-27 17:18:00,56.5,23.7,28.64,SSW,202,3.5,3.5,28,0.00,CLR,,0.00,WeatherDisplay:10.37,2013-10-27 22:18:00,
2013-10-27 17:19:00,56.3,23.6,28.64,SSW,202,4.6,4.6,28,0.00,CLR,,0.00,WeatherDisplay:10.37,2013-10-27 22:19:00,
2013-10-27 17:20:00,56.1,23.4,28.64,SW,225,5.8,5.8,28,0.00,CLR,,0.00,WeatherDisplay:10.37,2013-10-27 22:20:00,
2013-10-27 17:23:00,55.6,23.0,28.64,SSW,202,4.6,4.6,28,0.00,CLR,,0.00,WeatherDisplay:10.37,2013-10-27 22:23:00,
2013-10-27 17:24:00,55.4,22.8,28.64,WSW,248,3.5,3.5,28,0.00,CLR,,0.00,WeatherDisplay:10.37,2013-10-27 22:24:00,
2013-10-27 17:25:00,55.2,23.5,28.64,South,180,4.6,4.6,29,0.00,CLR,,0.00,WeatherDisplay:10.37,2013-10-27 22:25:00,
2013-10-27 17:26:00,54.9,23.2,28.64,ESE,112,3.5,3.5,29,0.00,CLR,,0.00,WeatherDisplay:10.37,2013-10-27 22:26:00,
2013-10-27 17:28:00,54.7,23.0,28.64,South,180,5.8,5.8,29,0.00,CLR,,0.00,WeatherDisplay:10.37,2013-10-27 22:28:00,
2013-10-27 17:29:00,54.7,23.0,28.64,WSW,248,3.5,3.5,29,0.00,CLR,,0.00,WeatherDisplay:10.37,2013-10-27 22:29:00,
2013-10-27 17:30:00,54.5,22.9,28.64,WSW,248,2.3,2.3,29,0.00,CLR,,0.00,WeatherDisplay:10.37,2013-10-27 22:30:00,
2013-10-27 17:31:00,54.5,22.9,28.64,WSW,248,3.5,3.5,29,0.00,CLR,,0.00,WeatherDisplay:10.37,2013-10-27 22:31:00,
2013-10-27 17:33:00,54.0,22.4,28.64,South,180,4.0,4.0,29,0.00,CLR,,0.00,WeatherDisplay:10.37,2013-10-27 22:33:00,
2013-10-27 17:34:00,53.8,23.0,28.64,SSW,202,4.6,4.6,30,0.00,CLR,,0.00,WeatherDisplay:10.37,2013-10-27 22:34:00,
2013-10-27 17:35:00,53.8,23.0,28.64,South,180,4.6,4.6,30,0.00,CLR,,0.00,WeatherDisplay:10.37,2013-10-27 22:35:00,
2013-10-27 17:36:00,53.6,22.9,28.64,WSW,248,2.3,2.3,30,0.00,CLR,,0.00,WeatherDisplay:10.37,2013-10-27 22:36:00,
2013-10-27 17:39:00,53.2,22.6,28.64,WSW,248,3.5,3.5,30,0.00,CLR,,0.00,WeatherDisplay:10.37,2013-10-27 22:39:00,
2013-10-27 17:40:00,53.2,22.6,28.64,WNW,292,3.5,3.5,30,0.00,CLR,,0.00,WeatherDisplay:10.37,2013-10-27 22:40:00,
2013-10-27 17:41:00,53.1,23.2,28.64,SW,225,3.5,3.5,31,0.00,CLR,,0.00,WeatherDisplay:10.37,2013-10-27 22:41:00,
2013-10-27 17:42:00,52.9,23.0,28.64,WSW,248,2.6,2.6,31,0.00,CLR,,0.00,WeatherDisplay:10.37,2013-10-27 22:42:00,
2013-10-27 17:44:00,52.5,22.7,28.64,SSW,202,3.5,3.5,31,0.00,CLR,,0.00,WeatherDisplay:10.37,2013-10-27 22:44:00,
2013-10-27 17:45:00,52.5,22.7,28.64,SSE,158,2.3,2.3,31,0.00,CLR,,0.00,WeatherDisplay:10.37,2013-10-27 22:45:00,
2013-10-27 17:46:00,52.5,22.7,28.64,South,180,2.3,2.3,31,0.00,CLR,,0.00,WeatherDisplay:10.37,2013-10-27 22:46:00,
2013-10-27 17:47:00,52.5,22.7,28.64,SSE,158,2.3,2.3,31,0.00,CLR,,0.00,WeatherDisplay:10.37,2013-10-27 22:47:00,
2013-10-27 17:50:00,52.2,22.4,28.64,NNW,338,2.3,2.3,31,0.00,CLR,,0.00,WeatherDisplay:10.37,2013-10-27 22:50:00,
2013-10-27 17:51:00,52.0,22.2,28.64,WSW,248,2.3,2.3,31,0.00,CLR,,0.00,WeatherDisplay:10.37,2013-10-27 22:51:00,
2013-10-27 17:52:00,52.0,22.2,28.64,SW,225,2.3,2.3,31,0.00,CLR,,0.00,WeatherDisplay:10.37,2013-10-27 22:52:00,
2013-10-27 17:55:00,51.6,22.7,28.67,West,270,2.3,2.3,32,0.00,CLR,,0.00,WeatherDisplay:10.37,2013-10-27 22:55:00,
2013-10-27 17:56:00,51.4,22.5,28.67,WSW,248,2.3,0.0,32,0.00,CLR,,0.00,WeatherDisplay:10.37,2013-10-27 22:56:00,
2013-10-27 17:58:00,51.1,22.9,28.67,NNW,338,2.3,2.3,33,0.00,CLR,,0.00,WeatherDisplay:10.37,2013-10-27 22:58:00,
2013-10-27 18:00:00,51.1,22.9,28.67,SW,225,2.3,2.3,33,0.00,CLR,,0.00,WeatherDisplay:10.37,2013-10-27 23:00:00,
2013-10-27 18:01:00,50.9,22.8,28.67,SW,225,2.3,2.3,33,0.00,CLR,,0.00,WeatherDisplay:10.37,2013-10-27 23:01:00,
2013-10-27 18:02:00,50.9,22.8,28.67,SSW,202,2.3,2.3,33,0.00,CLR,,0.00,WeatherDisplay:10.37,2013-10-27 23:02:00,
2013-10-27 18:03:00,50.7,22.6,28.67,SW,225,2.3,2.3,33,0.00,CLR,,0.00,WeatherDisplay:10.37,2013-10-27 23:03:00,
2013-10-27 18:04:00,50.7,22.6,28.67,WNW,292,1.2,1.4,33,0.00,CLR,,0.00,WeatherDisplay:10.37,2013-10-27 23:04:00,
2013-10-27 18:05:00,50.5,22.5,28.67,West,270,1.2,0.0,33,0.00,CLR,,0.00,WeatherDisplay:10.37,2013-10-27 23:05:00,
2013-10-27 18:06:00,50.4,22.3,28.67,WSW,248,0.0,0.0,33,0.00,CLR,,0.00,WeatherDisplay:10.37,2013-10-27 23:06:00,
2013-10-27 18:07:00,50.4,22.3,28.67,West,270,2.0,0.0,33,0.00,CLR,,0.00,WeatherDisplay:10.37,2013-10-27 23:07:00,
2013-10-27 18:08:00,50.2,22.9,28.67,West,270,2.3,2.3,34,0.00,CLR,,0.00,WeatherDisplay:10.37,2013-10-27 23:08:00,
2013-10-27 18:09:00,50.2,22.9,28.67,West,270,2.0,0.0,34,0.00,CLR,,0.00,WeatherDisplay:10.37,2013-10-27 23:09:00,
2013-10-27 18:10:00,50.0,22.7,28.67,West,270,2.3,0.0,34,0.00,CLR,,0.00,WeatherDisplay:10.37,2013-10-27 23:10:00,
2013-10-27 18:11:00,50.0,22.7,28.67,WSW,248,2.4,2.4,34,0.00,CLR,,0.00,WeatherDisplay:10.37,2013-10-27 23:11:00,
2013-10-27 18:12:00,50.0,22.7,28.67,West,270,2.3,2.3,34,0.00,CLR,,0.00,WeatherDisplay:10.37,2013-10-27 23:12:00,
2013-10-27 18:13:00,50.0,22.7,28.67,West,270,2.3,2.3,34,0.00,CLR,,0.00,WeatherDisplay:10.37,2013-10-27 23:13:00,
2013-10-27 18:15:00,50.0,22.7,28.67,SW,225,3.5,3.5,34,0.00,CLR,,0.00,WeatherDisplay:10.37,2013-10-27 23:15:00,
2013-10-27 18:17:00,50.0,23.4,28.67,WSW,248,2.3,2.4,35,0.00,CLR,,0.00,WeatherDisplay:10.37,2013-10-27 23:17:00,
2013-10-27 18:18:00,50.0,24.1,28.67,WSW,248,3.5,3.5,36,0.00,CLR,,0.00,WeatherDisplay:10.37,2013-10-27 23:18:00,
2013-10-27 18:20:00,50.0,24.1,28.67,SW,225,2.3,2.3,36,0.00,CLR,,0.00,WeatherDisplay:10.37,2013-10-27 23:20:00,
2013-10-27 18:21:00,50.0,24.1,28.67,WSW,248,2.3,2.3,36,0.00,CLR,,0.00,WeatherDisplay:10.37,2013-10-27 23:21:00,
2013-10-27 18:22:00,50.0,24.1,28.67,WSW,248,2.9,2.9,36,0.00,CLR,,0.00,WeatherDisplay:10.37,2013-10-27 23:22:00,
2013-10-27 18:23:00,50.0,24.1,28.67,SW,225,2.6,2.6,36,0.00,CLR,,0.00,WeatherDisplay:10.37,2013-10-27 23:23:00,
2013-10-27 18:26:00,50.0,24.1,28.70,WSW,248,1.2,1.6,36,0.00,CLR,,0.00,WeatherDisplay:10.37,2013-10-27 23:26:00,
2013-10-27 18:27:00,50.0,24.1,28.70,WSW,248,3.3,3.3,36,0.00,CLR,,0.00,WeatherDisplay:10.37,2013-10-27 23:27:00,
2013-10-27 18:28:00,49.8,24.6,28.70,WNW,292,3.5,3.5,37,0.00,CLR,,0.00,WeatherDisplay:10.37,2013-10-27 23:28:00,
2013-10-27 18:31:00,49.6,24.4,28.70,WSW,248,1.4,1.4,37,0.00,CLR,,0.00,WeatherDisplay:10.37,2013-10-27 23:31:00,
2013-10-27 18:32:00,49.6,24.4,28.70,SSW,202,1.2,1.2,37,0.00,CLR,,0.00,WeatherDisplay:10.37,2013-10-27 23:32:00,
2013-10-27 18:34:00,49.5,24.2,28.70,WSW,248,1.2,0.0,37,0.00,CLR,,0.00,WeatherDisplay:10.37,2013-10-27 23:34:00,
2013-10-27 18:36:00,49.3,24.1,28.70,WSW,248,1.4,1.4,37,0.00,CLR,,0.00,WeatherDisplay:10.37,2013-10-27 23:36:00,
2013-10-27 18:37:00,49.1,23.9,28.70,SSW,202,1.4,1.4,37,0.00,CLR,,0.00,WeatherDisplay:10.37,2013-10-27 23:37:00,
2013-10-27 18:39:00,48.9,23.8,28.70,North,0,1.4,1.4,37,0.00,CLR,,0.00,WeatherDisplay:10.37,2013-10-27 23:39:00,
2013-10-27 18:41:00,48.9,23.8,28.67,SSW,202,1.4,0.0,37,0.00,CLR,,0.00,WeatherDisplay:10.37,2013-10-27 23:41:00,
2013-10-27 18:42:00,48.7,23.6,28.67,SSW,202,1.2,1.2,37,0.00,CLR,,0.00,WeatherDisplay:10.37,2013-10-27 23:42:00,
2013-10-27 18:43:00,48.7,23.6,28.67,SW,225,1.2,0.0,37,0.00,CLR,,0.00,WeatherDisplay:10.37,2013-10-27 23:43:00,
2013-10-27 18:44:00,48.6,23.4,28.67,WSW,248,1.2,0.0,37,0.00,CLR,,0.00,WeatherDisplay:10.37,2013-10-27 23:44:00,
2013-10-27 18:47:00,48.4,23.3,28.67,SW,225,1.2,0.0,37,0.00,CLR,,0.00,WeatherDisplay:10.37,2013-10-27 23:47:00,
2013-10-27 18:48:00,47.8,23.4,28.67,WNW,292,0.9,0.0,38,0.00,CLR,,0.00,WeatherDisplay:10.37,2013-10-27 23:48:00,
2013-10-27 18:49:00,47.7,23.3,28.67,WNW,292,2.0,2.0,38,0.00,CLR,,0.00,WeatherDisplay:10.37,2013-10-27 23:49:00,
2013-10-27 18:50:00,47.3,22.9,28.67,WNW,292,2.3,2.3,38,0.00,CLR,,0.00,WeatherDisplay:10.37,2013-10-27 23:50:00,
2013-10-27 18:52:00,46.9,22.6,28.67,WNW,292,2.3,2.3,38,0.00,CLR,,0.00,WeatherDisplay:10.37,2013-10-27 23:52:00,
2013-10-27 18:53:00,46.6,22.3,28.67,WNW,292,2.3,2.3,38,0.00,CLR,,0.00,WeatherDisplay:10.37,2013-10-27 23:53:00,
2013-10-27 18:54:00,46.3,22.1,28.67,West,280,2.0,2.0,38,0.00,CLR,,0.00,WeatherDisplay:10.37,2013-10-27 23:54:00,
2013-10-27 18:55:00,46.0,22.4,28.67,WNW,292,2.3,2.3,39,0.00,CLR,,0.00,WeatherDisplay:10.37,2013-10-27 23:55:00,
2013-10-27 18:57:00,45.5,21.9,28.67,West,270,2.3,2.3,39,0.00,CLR,,0.00,WeatherDisplay:10.37,2013-10-27 23:57:00,
2013-10-27 18:58:00,45.3,21.8,28.67,West,270,2.3,2.3,39,0.00,CLR,,0.00,WeatherDisplay:10.37,2013-10-27 23:58:00,
2013-10-27 18:59:00,45.3,21.8,28.67,West,270,2.3,2.3,39,0.00,CLR,,0.00,WeatherDisplay:10.37,2013-10-27 23:59:00,
2013-10-27 19:00:00,45.1,21.6,28.67,SW,225,2.3,2.3,39,0.00,CLR,,0.00,WeatherDisplay:10.37,2013-10-28 00:00:00,
2013-10-27 19:02:00,45.0,21.5,28.67,SW,225,1.2,1.4,39,0.00,CLR,,0.00,WeatherDisplay:10.37,2013-10-28 00:02:00,
2013-10-27 19:03:00,44.8,21.3,28.67,SW,225,1.2,0.0,39,0.00,CLR,,0.00,WeatherDisplay:10.37,2013-10-28 00:03:00,
2013-10-27 19:04:00,44.6,21.7,28.67,SW,225,0.0,0.0,40,0.00,CLR,,0.00,WeatherDisplay:10.37,2013-10-28 00:04:00,
2013-10-27 19:05:00,44.4,21.6,28.67,SW,225,0.0,0.0,40,0.00,CLR,,0.00,WeatherDisplay:10.37,2013-10-28 00:05:00,
2013-10-27 19:06:00,44.2,22.0,28.67,West,270,0.0,0.0,41,0.00,CLR,,0.00,WeatherDisplay:10.37,2013-10-28 00:06:00,
2013-10-27 19:07:00,44.1,21.8,28.67,West,270,0.0,0.0,41,0.00,CLR,,0.00,WeatherDisplay:10.37,2013-10-28 00:07:00,
2013-10-27 19:08:00,43.9,21.7,28.67,West,270,0.0,0.0,41,0.00,CLR,,0.00,WeatherDisplay:10.37,2013-10-28 00:08:00,
2013-10-27 19:09:00,43.5,21.3,28.67,West,270,0.0,0.0,41,0.00,CLR,,0.00,WeatherDisplay:10.37,2013-10-28 00:09:00,
2013-10-27 19:10:00,43.3,21.2,28.70,West,270,0.0,0.0,41,0.00,CLR,,0.00,WeatherDisplay:10.37,2013-10-28 00:10:00,
2013-10-27 19:11:00,43.0,21.4,28.70,West,270,1.4,0.0,42,0.00,CLR,,0.00,WeatherDisplay:10.37,2013-10-28 00:11:00,
2013-10-27 19:12:00,42.8,21.3,28.70,WNW,292,1.6,1.6,42,0.00,CLR,,0.00,WeatherDisplay:10.37,2013-10-28 00:12:00,
2013-10-27 19:13:00,42.6,21.1,28.70,WNW,292,2.3,2.3,42,0.00,CLR,,0.00,WeatherDisplay:10.37,2013-10-28 00:13:00,
2013-10-27 19:15:00,42.3,21.3,28.70,WNW,292,1.2,1.6,43,0.00,CLR,,0.00,WeatherDisplay:10.37,2013-10-28 00:15:00,
2013-10-27 19:17:00,42.1,21.7,28.70,WNW,292,0.0,0.0,44,0.00,CLR,,0.00,WeatherDisplay:10.37,2013-10-28 00:17:00,
2013-10-27 19:18:00,41.9,21.5,28.70,WNW,292,0.0,0.0,44,0.00,CLR,,0.00,WeatherDisplay:10.37,2013-10-28 00:18:00,
2013-10-27 19:20:00,41.5,21.8,28.70,WNW,292,0.0,0.0,45,0.00,CLR,,0.00,WeatherDisplay:10.37,2013-10-28 00:20:00,
2013-10-27 19:22:00,41.0,21.8,28.70,WNW,292,0.0,0.0,46,0.00,CLR,,0.00,WeatherDisplay:10.37,2013-10-28 00:22:00,
2013-10-27 19:23:00,41.0,21.8,28.70,WNW,292,0.0,0.0,46,0.00,CLR,,0.00,WeatherDisplay:10.37,2013-10-28 00:23:00,
2013-10-27 19:25:00,41.0,21.8,28.73,WNW,292,0.0,0.0,46,0.00,CLR,,0.00,WeatherDisplay:10.37,2013-10-28 00:25:00,
2013-10-27 19:26:00,40.6,22.0,28.73,WNW,292,0.0,0.0,47,0.00,CLR,,0.00,WeatherDisplay:10.37,2013-10-28 00:26:00,
2013-10-27 19:28:00,40.1,22.0,28.73,WNW,292,0.0,0.0,48,0.00,CLR,,0.00,WeatherDisplay:10.37,2013-10-28 00:28:00,
2013-10-27 19:30:00,39.7,21.6,28.73,WNW,292,0.0,0.0,48,0.00,CLR,,0.00,WeatherDisplay:10.37,2013-10-28 00:30:00,
2013-10-27 19:31:00,39.7,21.6,28.73,WNW,292,0.0,0.0,48,0.00,CLR,,0.00,WeatherDisplay:10.37,2013-10-28 00:31:00,
2013-10-27 19:33:00,39.2,21.6,28.73,WNW,292,0.0,0.0,49,0.00,CLR,,0.00,WeatherDisplay:10.37,2013-10-28 00:33:00,
2013-10-27 19:36:00,38.8,21.8,28.73,WNW,292,1.4,0.0,50,0.00,CLR,,0.00,WeatherDisplay:10.37,2013-10-28 00:36:00,
2013-10-27 19:38:00,38.7,21.6,28.73,WNW,292,1.6,1.6,50,0.00,CLR,,0.00,WeatherDisplay:10.37,2013-10-28 00:38:00,
2013-10-27 19:39:00,38.7,21.6,28.73,WNW,292,1.6,1.6,50,0.00,CLR,,0.00,WeatherDisplay:10.37,2013-10-28 00:39:00,
2013-10-27 19:41:00,38.5,21.4,28.73,WNW,292,1.2,0.0,50,0.00,CLR,,0.00,WeatherDisplay:10.37,2013-10-28 00:41:00,
2013-10-27 19:42:00,38.5,21.9,28.73,WNW,292,1.2,0.0,51,0.00,CLR,,0.00,WeatherDisplay:10.37,2013-10-28 00:42:00,
2013-10-27 19:43:00,38.5,21.9,28.73,WNW,292,0.0,0.0,51,0.00,CLR,,0.00,WeatherDisplay:10.37,2013-10-28 00:43:00,
2013-10-27 19:44:00,38.3,21.7,28.73,WNW,292,0.0,0.0,51,0.00,CLR,,0.00,WeatherDisplay:10.37,2013-10-28 00:44:00,
2013-10-27 19:46:00,38.1,22.0,28.73,WNW,292,0.0,0.0,52,0.00,CLR,,0.00,WeatherDisplay:10.37,2013-10-28 00:46:00,
2013-10-27 19:47:00,38.1,22.0,28.73,WNW,292,0.0,0.0,52,0.00,CLR,,0.00,WeatherDisplay:10.37,2013-10-28 00:47:00,
2013-10-27 19:49:00,37.9,21.4,28.73,WNW,292,0.0,0.0,51,0.00,CLR,,0.00,WeatherDisplay:10.37,2013-10-28 00:49:00,
2013-10-27 19:51:00,37.6,21.5,28.73,WNW,292,0.0,0.0,52,0.00,CLR,,0.00,WeatherDisplay:10.37,2013-10-28 00:51:00,
2013-10-27 19:52:00,37.4,21.4,28.73,WNW,292,0.0,0.0,52,0.00,CLR,,0.00,WeatherDisplay:10.37,2013-10-28 00:52:00,
2013-10-27 19:53:00,37.4,21.4,28.73,WNW,292,0.0,0.0,52,0.00,CLR,,0.00,WeatherDisplay:10.37,2013-10-28 00:53:00,
2013-10-27 19:54:00,37.4,21.8,28.73,WNW,292,0.0,0.0,53,0.00,CLR,,0.00,WeatherDisplay:10.37,2013-10-28 00:54:00,
2013-10-27 19:57:00,37.0,21.5,28.73,WNW,292,0.0,0.0,53,0.00,CLR,,0.00,WeatherDisplay:10.37,2013-10-28 00:57:00,
2013-10-27 19:58:00,36.9,21.3,28.73,WNW,292,0.0,0.0,53,0.00,CLR,,0.00,WeatherDisplay:10.37,2013-10-28 00:58:00,
2013-10-27 19:59:00,36.9,21.7,28.73,WNW,292,0.0,0.0,54,0.00,CLR,,0.00,WeatherDisplay:10.37,2013-10-28 00:59:00,
2013-10-27 20:02:00,36.7,21.6,28.73,WNW,292,0.0,0.0,54,0.00,CLR,,0.00,WeatherDisplay:10.37,2013-10-28 01:02:00,
2013-10-27 20:04:00,36.7,21.1,28.73,West,270,0.0,0.0,53,0.00,CLR,,0.00,WeatherDisplay:10.37,2013-10-28 01:04:00,
2013-10-27 20:05:00,36.7,21.1,28.73,West,270,0.0,0.0,53,0.00,CLR,,0.00,WeatherDisplay:10.37,2013-10-28 01:05:00,
2013-10-27 20:07:00,36.7,21.6,28.73,West,270,0.0,0.0,54,0.00,CLR,,0.00,WeatherDisplay:10.37,2013-10-28 01:07:00,
2013-10-27 20:09:00,36.7,21.6,28.73,West,270,0.0,0.0,54,0.00,CLR,,0.00,WeatherDisplay:10.37,2013-10-28 01:09:00,
2013-10-27 20:10:00,36.7,21.6,28.73,West,270,0.0,0.0,54,0.00,CLR,,0.00,WeatherDisplay:10.37,2013-10-28 01:10:00,
2013-10-27 20:11:00,36.7,21.1,28.73,West,270,0.0,0.0,53,0.00,CLR,,0.00,WeatherDisplay:10.37,2013-10-28 01:11:00,
2013-10-27 20:12:00,36.5,21.4,28.73,West,270,0.0,0.0,54,0.00,CLR,,0.00,WeatherDisplay:10.37,2013-10-28 01:12:00,
2013-10-27 20:13:00,36.5,21.4,28.73,West,270,0.0,0.0,54,0.00,CLR,,0.00,WeatherDisplay:10.37,2013-10-28 01:13:00,
2013-10-27 20:14:00,36.5,21.4,28.73,West,270,0.0,0.0,54,0.00,CLR,,0.00,WeatherDisplay:10.37,2013-10-28 01:14:00,
2013-10-27 20:15:00,36.3,21.7,28.73,West,270,0.0,0.0,55,0.00,CLR,,0.00,WeatherDisplay:10.37,2013-10-28 01:15:00,
2013-10-27 20:16:00,36.3,21.7,28.73,West,270,0.0,0.0,55,0.00,CLR,,0.00,WeatherDisplay:10.37,2013-10-28 01:16:00,
2013-10-27 20:18:00,36.3,21.7,28.73,West,270,0.0,0.0,55,0.00,CLR,,0.00,WeatherDisplay:10.37,2013-10-28 01:18:00,
2013-10-27 20:20:00,36.1,21.9,28.73,West,270,0.0,0.0,56,0.00,CLR,,0.00,WeatherDisplay:10.37,2013-10-28 01:20:00,
2013-10-27 20:22:00,36.1,21.9,28.73,West,270,0.0,0.0,56,0.00,CLR,,0.00,WeatherDisplay:10.37,2013-10-28 01:22:00,
2013-10-27 20:23:00,36.0,21.8,28.73,West,270,0.0,0.0,56,0.00,CLR,,0.00,WeatherDisplay:10.37,2013-10-28 01:23:00,
2013-10-27 20:25:00,36.1,21.9,28.70,West,270,0.0,0.0,56,0.00,CLR,,0.00,WeatherDisplay:10.37,2013-10-28 01:25:00,
2013-10-27 20:26:00,36.0,21.8,28.70,West,270,0.0,0.0,56,0.00,CLR,,0.00,WeatherDisplay:10.37,2013-10-28 01:26:00,
2013-10-27 20:27:00,36.0,21.8,28.70,West,270,0.0,0.0,56,0.00,CLR,,0.00,WeatherDisplay:10.37,2013-10-28 01:27:00,
2013-10-27 20:28:00,35.8,22.0,28.70,West,270,0.0,0.0,57,0.00,CLR,,0.00,WeatherDisplay:10.37,2013-10-28 01:28:00,
2013-10-27 20:29:00,35.8,21.6,28.70,West,270,0.0,0.0,56,0.00,CLR,,0.00,WeatherDisplay:10.37,2013-10-28 01:29:00,
2013-10-27 20:30:00,35.8,22.0,28.70,West,270,0.0,0.0,57,0.00,CLR,,0.00,WeatherDisplay:10.37,2013-10-28 01:30:00,
2013-10-27 20:31:00,35.6,22.3,28.70,West,270,0.0,0.0,58,0.00,CLR,,0.00,WeatherDisplay:10.37,2013-10-28 01:31:00,
2013-10-27 20:33:00,35.4,22.1,28.70,West,270,0.0,0.0,58,0.00,CLR,,0.00,WeatherDisplay:10.37,2013-10-28 01:33:00,
2013-10-27 20:34:00,35.4,22.5,28.70,West,270,0.0,0.0,59,0.00,CLR,,0.00,WeatherDisplay:10.37,2013-10-28 01:34:00,
2013-10-27 20:35:00,35.2,21.9,28.70,West,270,0.0,0.0,58,0.00,CLR,,0.00,WeatherDisplay:10.37,2013-10-28 01:35:00,
2013-10-27 20:36:00,35.1,21.8,28.70,West,270,0.0,0.0,58,0.00,CLR,,0.00,WeatherDisplay:10.37,2013-10-28 01:36:00,
2013-10-27 20:38:00,35.1,22.2,28.70,West,270,0.0,0.0,59,0.00,CLR,,0.00,WeatherDisplay:10.37,2013-10-28 01:38:00,
2013-10-27 20:39:00,35.1,22.2,28.73,West,270,0.0,0.0,59,0.00,CLR,,0.00,WeatherDisplay:10.37,2013-10-28 01:39:00,
2013-10-27 20:41:00,34.9,22.0,28.73,West,270,0.0,0.0,59,0.00,CLR,,0.00,WeatherDisplay:10.37,2013-10-28 01:41:00,
2013-10-27 20:43:00,34.9,22.0,28.73,West,270,0.0,0.0,59,0.00,CLR,,0.00,WeatherDisplay:10.37,2013-10-28 01:43:00,
2013-10-27 20:44:00,34.9,22.0,28.73,West,270,0.0,0.0,59,0.00,CLR,,0.00,WeatherDisplay:10.37,2013-10-28 01:44:00,
2013-10-27 20:46:00,34.9,22.0,28.73,West,270,0.0,0.0,59,0.00,CLR,,0.00,WeatherDisplay:10.37,2013-10-28 01:46:00,
2013-10-27 20:47:00,34.9,22.4,28.73,West,270,0.0,0.0,60,0.00,CLR,,0.00,WeatherDisplay:10.37,2013-10-28 01:47:00,
2013-10-27 20:48:00,34.9,22.4,28.73,West,270,0.0,0.0,60,0.00,CLR,,0.00,WeatherDisplay:10.37,2013-10-28 01:48:00,
2013-10-27 20:49:00,34.9,22.4,28.73,West,270,0.0,0.0,60,0.00,CLR,,0.00,WeatherDisplay:10.37,2013-10-28 01:49:00,
2013-10-27 20:50:00,34.9,22.4,28.73,West,270,0.0,0.0,60,0.00,CLR,,0.00,WeatherDisplay:10.37,2013-10-28 01:50:00,
2013-10-27 20:51:00,34.9,22.4,28.73,West,270,0.0,0.0,60,0.00,CLR,,0.00,WeatherDisplay:10.37,2013-10-28 01:51:00,
2013-10-27 20:52:00,34.9,22.4,28.73,West,270,0.0,0.0,60,0.00,CLR,,0.00,WeatherDisplay:10.37,2013-10-28 01:52:00,
2013-10-27 20:53:00,34.7,22.2,28.73,West,270,0.0,0.0,60,0.00,CLR,,0.00,WeatherDisplay:10.37,2013-10-28 01:53:00,
2013-10-27 20:55:00,34.5,21.7,28.73,WSW,248,0.0,0.0,59,0.00,CLR,,0.00,WeatherDisplay:10.37,2013-10-28 01:55:00,
2013-10-27 20:56:00,34.5,21.7,28.73,WSW,248,0.0,0.0,59,0.00,CLR,,0.00,WeatherDisplay:10.37,2013-10-28 01:56:00,
2013-10-27 20:57:00,34.5,21.7,28.73,WSW,248,0.0,0.0,59,0.00,CLR,,0.00,WeatherDisplay:10.37,2013-10-28 01:57:00,
2013-10-27 20:58:00,34.5,21.7,28.73,WSW,248,0.0,0.0,59,0.00,CLR,,0.00,WeatherDisplay:10.37,2013-10-28 01:58:00,
2013-10-27 21:00:00,34.5,22.1,28.73,SSE,158,2.3,0.0,60,0.00,CLR,,0.00,WeatherDisplay:10.37,2013-10-28 02:00:00,
2013-10-27 21:01:00,34.5,22.4,28.73,SW,225,2.3,2.3,61,0.00,CLR,,0.00,WeatherDisplay:10.37,2013-10-28 02:01:00,
2013-10-27 21:03:00,34.5,22.4,28.73,SW,225,0.0,0.0,61,0.00,CLR,,0.00,WeatherDisplay:10.37,2013-10-28 02:03:00,
2013-10-27 21:05:00,34.5,22.8,28.73,SW,225,0.0,0.0,62,0.00,CLR,,0.00,WeatherDisplay:10.37,2013-10-28 02:05:00,
2013-10-27 21:06:00,34.5,22.8,28.73,SW,225,0.0,0.0,62,0.00,CLR,,0.00,WeatherDisplay:10.37,2013-10-28 02:06:00,
2013-10-27 21:08:00,34.5,22.4,28.73,SW,225,0.0,0.0,61,0.00,CLR,,0.00,WeatherDisplay:10.37,2013-10-28 02:08:00,
2013-10-27 21:09:00,34.3,22.3,28.73,West,270,0.0,0.0,61,0.00,CLR,,0.00,WeatherDisplay:10.37,2013-10-28 02:09:00,
2013-10-27 21:10:00,34.3,22.7,28.73,West,270,0.0,0.0,62,0.00,CLR,,0.00,WeatherDisplay:10.37,2013-10-28 02:10:00,
2013-10-27 21:11:00,34.3,22.7,28.73,West,270,0.0,0.0,62,0.00,CLR,,0.00,WeatherDisplay:10.37,2013-10-28 02:11:00,
2013-10-27 21:13:00,34.0,22.7,28.73,West,270,0.0,0.0,63,0.00,CLR,,0.00,WeatherDisplay:10.37,2013-10-28 02:13:00,
2013-10-27 21:14:00,34.0,22.7,28.73,West,270,0.0,0.0,63,0.00,CLR,,0.00,WeatherDisplay:10.37,2013-10-28 02:14:00,
2013-10-27 21:15:00,34.0,22.7,28.73,West,270,0.0,0.0,63,0.00,CLR,,0.00,WeatherDisplay:10.37,2013-10-28 02:15:00,
2013-10-27 21:16:00,34.0,22.7,28.73,West,270,0.0,0.0,63,0.00,CLR,,0.00,WeatherDisplay:10.37,2013-10-28 02:16:00,
2013-10-27 21:19:00,33.8,22.5,28.73,West,270,0.0,0.0,63,0.00,CLR,,0.00,WeatherDisplay:10.37,2013-10-28 02:19:00,
2013-10-27 21:20:00,33.8,22.5,28.73,West,270,0.0,0.0,63,0.00,CLR,,0.00,WeatherDisplay:10.37,2013-10-28 02:20:00,
2013-10-27 21:21:00,33.8,22.5,28.73,West,270,0.0,0.0,63,0.00,CLR,,0.00,WeatherDisplay:10.37,2013-10-28 02:21:00,
2013-10-27 21:23:00,33.6,22.7,28.73,NW,315,0.0,0.0,64,0.00,CLR,,0.00,WeatherDisplay:10.37,2013-10-28 02:23:00,
2013-10-27 21:24:00,33.6,23.1,28.76,NW,315,0.0,0.0,65,0.00,CLR,,0.00,WeatherDisplay:10.37,2013-10-28 02:24:00,
2013-10-27 21:25:00,33.6,23.1,28.76,NW,315,0.0,0.0,65,0.00,CLR,,0.00,WeatherDisplay:10.37,2013-10-28 02:25:00,
2013-10-27 21:26:00,33.4,23.3,28.76,NW,315,0.0,0.0,66,0.00,CLR,,0.00,WeatherDisplay:10.37,2013-10-28 02:26:00,
2013-10-27 21:27:00,33.4,23.3,28.76,NW,315,0.0,0.0,66,0.00,CLR,,0.00,WeatherDisplay:10.37,2013-10-28 02:27:00,
2013-10-27 21:28:00,33.3,22.8,28.76,NW,315,0.0,0.0,65,0.00,CLR,,0.00,WeatherDisplay:10.37,2013-10-28 02:28:00,
2013-10-27 21:30:00,33.3,23.1,28.76,NW,315,0.0,0.0,66,0.00,CLR,,0.00,WeatherDisplay:10.37,2013-10-28 02:30:00,
2013-10-27 21:31:00,33.3,23.1,28.76,NW,315,0.0,0.0,66,0.00,CLR,,0.00,WeatherDisplay:10.37,2013-10-28 02:31:00,
2013-10-27 21:32:00,33.1,22.9,28.76,NW,315,0.0,0.0,66,0.00,CLR,,0.00,WeatherDisplay:10.37,2013-10-28 02:32:00,
2013-10-27 21:33:00,33.1,22.6,28.76,NW,315,0.0,0.0,65,0.00,CLR,,0.00,WeatherDisplay:10.37,2013-10-28 02:33:00,
2013-10-27 21:35:00,33.1,22.9,28.76,NW,315,0.0,0.0,66,0.00,CLR,,0.00,WeatherDisplay:10.37,2013-10-28 02:35:00,
2013-10-27 21:36:00,33.1,22.9,28.76,NW,315,0.0,0.0,66,0.00,CLR,,0.00,WeatherDisplay:10.37,2013-10-28 02:36:00,
2013-10-27 21:37:00,33.1,22.9,28.76,NW,315,0.0,0.0,66,0.00,CLR,,0.00,WeatherDisplay:10.37,2013-10-28 02:37:00,
2013-10-27 21:38:00,33.1,22.9,28.76,NW,315,0.0,0.0,66,0.00,CLR,,0.00,WeatherDisplay:10.37,2013-10-28 02:38:00,
2013-10-27 21:40:00,33.1,22.9,28.76,NW,315,0.0,0.0,66,0.00,CLR,,0.00,WeatherDisplay:10.37,2013-10-28 02:40:00,
2013-10-27 21:41:00,33.1,22.9,28.76,NW,315,0.0,0.0,66,0.00,CLR,,0.00,WeatherDisplay:10.37,2013-10-28 02:41:00,
2013-10-27 21:42:00,33.1,22.9,28.76,NW,315,0.0,0.0,66,0.00,CLR,,0.00,WeatherDisplay:10.37,2013-10-28 02:42:00,
2013-10-27 21:43:00,33.1,22.9,28.76,SSE,158,2.0,0.0,66,0.00,CLR,,0.00,WeatherDisplay:10.37,2013-10-28 02:43:00,
2013-10-27 21:45:00,33.3,23.5,28.76,SSE,158,1.2,0.0,67,0.00,CLR,,0.00,WeatherDisplay:10.37,2013-10-28 02:45:00,
2013-10-27 21:46:00,33.1,22.9,28.76,SSE,158,0.0,0.0,66,0.00,CLR,,0.00,WeatherDisplay:10.37,2013-10-28 02:46:00,
2013-10-27 21:47:00,33.3,23.5,28.76,SSE,158,0.0,0.0,67,0.00,CLR,,0.00,WeatherDisplay:10.37,2013-10-28 02:47:00,
2013-10-27 21:48:00,33.3,23.1,28.76,SSE,158,0.0,0.0,66,0.00,CLR,,0.00,WeatherDisplay:10.37,2013-10-28 02:48:00,
2013-10-27 21:50:00,33.1,23.3,28.76,SSE,158,0.0,0.0,67,0.00,CLR,,0.00,WeatherDisplay:10.37,2013-10-28 02:50:00,
2013-10-27 21:51:00,33.1,23.7,28.76,NNW,338,1.6,0.0,68,0.00,CLR,,0.00,WeatherDisplay:10.37,2013-10-28 02:51:00,
2013-10-27 21:52:00,33.1,23.7,28.76,NNW,338,2.3,0.0,68,0.00,CLR,,0.00,WeatherDisplay:10.37,2013-10-28 02:52:00,
2013-10-27 21:53:00,32.9,23.8,28.76,NW,315,3.6,3.6,69,0.00,CLR,,0.00,WeatherDisplay:10.37,2013-10-28 02:53:00,
2013-10-27 21:54:00,32.9,23.8,28.76,NW,315,7.4,7.4,69,0.00,CLR,,0.00,WeatherDisplay:10.37,2013-10-28 02:54:00,
2013-10-27 21:56:00,32.7,25.7,28.79,NNE,22,6.9,6.9,75,0.00,CLR,,0.00,WeatherDisplay:10.37,2013-10-28 02:56:00,
2013-10-27 21:57:00,32.7,26.3,28.79,North,0,5.8,5.8,77,0.00,CLR,,0.00,WeatherDisplay:10.37,2013-10-28 02:57:00,
2013-10-27 21:58:00,32.5,25.8,28.79,SSW,202,3.5,3.5,76,0.00,CLR,,0.00,WeatherDisplay:10.37,2013-10-28 02:58:00,
2013-10-27 21:59:00,32.7,25.7,28.79,NW,315,2.3,2.3,75,0.00,CLR,,0.00,WeatherDisplay:10.37,2013-10-28 02:59:00,
2013-10-27 22:01:00,32.9,25.8,28.79,NNW,338,2.3,2.3,75,0.00,CLR,,0.00,WeatherDisplay:10.37,2013-10-28 03:01:00,
2013-10-27 22:02:00,33.1,26.0,28.79,North,0,1.2,1.4,75,0.00,CLR,,0.00,WeatherDisplay:10.37,2013-10-28 03:02:00,
2013-10-27 22:03:00,33.1,26.0,28.79,South,180,2.3,2.3,75,0.00,CLR,,0.00,WeatherDisplay:10.37,2013-10-28 03:03:00,
2013-10-27 22:04:00,33.3,26.2,28.79,NNE,22,2.4,2.4,75,0.00,CLR,,0.00,WeatherDisplay:10.37,2013-10-28 03:04:00,
2013-10-27 22:05:00,34.0,27.2,28.79,SSW,202,2.3,2.3,76,0.00,CLR,,0.00,WeatherDisplay:10.37,2013-10-28 03:05:00,
2013-10-27 22:06:00,34.0,26.9,28.79,SSW,202,1.2,0.0,75,0.00,CLR,,0.00,WeatherDisplay:10.37,2013-10-28 03:06:00,
2013-10-27 22:07:00,34.2,27.1,28.79,SSW,202,1.2,0.0,75,0.00,CLR,,0.00,WeatherDisplay:10.37,2013-10-28 03:07:00,
2013-10-27 22:08:00,34.3,27.2,28.79,SW,225,0.0,0.0,75,0.00,CLR,,0.00,WeatherDisplay:10.37,2013-10-28 03:08:00,
2013-10-27 22:10:00,34.3,26.9,28.79,SW,225,3.5,3.5,74,0.00,CLR,,0.00,WeatherDisplay:10.37,2013-10-28 03:10:00,
2013-10-27 22:11:00,34.5,27.1,28.79,NW,315,3.5,3.5,74,0.00,CLR,,0.00,WeatherDisplay:10.37,2013-10-28 03:11:00,
2013-10-27 22:12:00,34.7,27.3,28.79,NW,315,2.3,0.0,74,0.00,CLR,,0.00,WeatherDisplay:10.37,2013-10-28 03:12:00,
2013-10-27 22:13:00,34.7,27.3,28.79,WNW,292,1.2,0.0,74,0.00,CLR,,0.00,WeatherDisplay:10.37,2013-10-28 03:13:00,
2013-10-27 22:15:00,35.4,28.6,28.79,West,270,4.6,4.6,76,0.00,CLR,,0.00,WeatherDisplay:10.37,2013-10-28 03:15:00,
2013-10-27 22:17:00,35.6,28.8,28.79,West,270,2.3,2.3,76,0.00,CLR,,0.00,WeatherDisplay:10.37,2013-10-28 03:17:00,
2013-10-27 22:19:00,36.0,29.1,28.79,North,0,4.6,4.6,76,0.00,CLR,,0.00,WeatherDisplay:10.37,2013-10-28 03:19:00,
2013-10-27 22:20:00,36.0,29.1,28.79,North,0,2.3,0.0,76,0.00,CLR,,0.00,WeatherDisplay:10.37,2013-10-28 03:20:00,
2013-10-27 22:22:00,35.6,28.1,28.79,NE,45,1.4,1.4,74,0.00,CLR,,0.00,WeatherDisplay:10.37,2013-10-28 03:22:00,
2013-10-27 22:24:00,35.4,27.6,28.79,NE,45,2.3,2.3,73,0.00,CLR,,0.00,WeatherDisplay:10.37,2013-10-28 03:24:00,
2013-10-27 22:25:00,35.2,27.1,28.82,NNE,22,2.3,2.3,72,0.00,CLR,,0.00,WeatherDisplay:10.37,2013-10-28 03:25:00,
2013-10-27 22:26:00,35.2,27.1,28.82,NNE,22,2.3,2.3,72,0.00,CLR,,0.00,WeatherDisplay:10.37,2013-10-28 03:26:00,
2013-10-27 22:27:00,35.2,27.1,28.82,NW,315,3.1,3.1,72,0.00,CLR,,0.00,WeatherDisplay:10.37,2013-10-28 03:27:00,
2013-10-27 22:30:00,37.0,30.2,28.82,NW,315,5.8,5.8,76,0.00,CLR,,0.00,WeatherDisplay:10.37,2013-10-28 03:30:00,
2013-10-27 22:31:00,37.6,30.7,28.82,NNW,338,5.8,5.8,76,0.00,CLR,,0.00,WeatherDisplay:10.37,2013-10-28 03:31:00,
2013-10-27 22:32:00,37.9,31.0,28.82,NNW,338,6.2,6.2,76,0.00,CLR,,0.00,WeatherDisplay:10.37,2013-10-28 03:32:00,
2013-10-27 22:33:00,38.5,31.2,28.82,NW,315,6.0,6.0,75,0.00,CLR,,0.00,WeatherDisplay:10.37,2013-10-28 03:33:00,
2013-10-27 22:35:00,39.4,31.8,28.82,NNW,338,7.1,7.1,74,0.00,CLR,,0.00,WeatherDisplay:10.37,2013-10-28 03:35:00,
2013-10-27 22:36:00,40.6,32.3,28.82,NW,315,6.9,6.9,72,0.00,CLR,,0.00,WeatherDisplay:10.37,2013-10-28 03:36:00,
2013-10-27 22:37:00,41.0,32.3,28.82,NNW,338,5.8,5.8,71,0.00,CLR,,0.00,WeatherDisplay:10.37,2013-10-28 03:37:00,
2013-10-27 22:38:00,41.2,32.1,28.82,NNW,338,10.0,10.0,70,0.00,CLR,,0.00,WeatherDisplay:10.37,2013-10-28 03:38:00,
2013-10-27 22:40:00,41.9,31.7,28.82,NNW,338,8.1,8.1,67,0.00,CLR,,0.00,WeatherDisplay:10.37,2013-10-28 03:40:00,
2013-10-27 22:41:00,42.3,31.7,28.82,NW,315,8.7,8.7,66,0.00,CLR,,0.00,WeatherDisplay:10.37,2013-10-28 03:41:00,
2013-10-27 22:42:00,42.4,31.5,28.82,WNW,292,9.2,9.2,65,0.00,CLR,,0.00,WeatherDisplay:10.37,2013-10-28 03:42:00,
2013-10-27 22:43:00,42.6,31.3,28.82,NW,315,8.1,8.1,64,0.00,CLR,,0.00,WeatherDisplay:10.37,2013-10-28 03:43:00,
2013-10-27 22:45:00,43.0,30.4,28.82,NNW,338,11.5,11.5,61,0.00,CLR,,0.00,WeatherDisplay:10.37,2013-10-28 03:45:00,
2013-10-27 22:46:00,43.2,30.2,28.82,North,0,11.5,11.5,60,0.00,CLR,,0.00,WeatherDisplay:10.37,2013-10-28 03:46:00,
2013-10-27 22:47:00,43.2,30.2,28.82,NW,315,9.2,9.2,60,0.00,CLR,,0.00,WeatherDisplay:10.37,2013-10-28 03:47:00,
2013-10-27 22:48:00,43.2,30.2,28.82,North,0,10.4,10.4,60,0.00,CLR,,0.00,WeatherDisplay:10.37,2013-10-28 03:48:00,
2013-10-27 22:50:00,43.5,29.7,28.82,NNW,338,9.2,9.2,58,0.00,CLR,,0.00,WeatherDisplay:10.37,2013-10-28 03:50:00,
2013-10-27 22:52:00,43.5,29.3,28.82,North,0,9.2,9.2,57,0.00,CLR,,0.00,WeatherDisplay:10.37,2013-10-28 03:52:00,
2013-10-27 22:53:00,43.5,29.3,28.82,NNE,22,9.2,9.2,57,0.00,CLR,,0.00,WeatherDisplay:10.37,2013-10-28 03:53:00,
2013-10-27 22:55:00,43.5,29.3,28.85,North,0,5.8,5.8,57,0.00,CLR,,0.00,WeatherDisplay:10.37,2013-10-28 03:55:00,
2013-10-27 22:57:00,43.3,28.7,28.85,North,0,6.9,6.9,56,0.00,CLR,,0.00,WeatherDisplay:10.37,2013-10-28 03:57:00,
2013-10-27 22:58:00,43.3,28.7,28.85,North,0,8.5,8.5,56,0.00,CLR,,0.00,WeatherDisplay:10.37,2013-10-28 03:58:00,
2013-10-27 23:01:00,43.5,28.8,28.85,NNW,338,6.9,6.9,56,0.00,CLR,,0.00,WeatherDisplay:10.37,2013-10-28 04:01:00,
2013-10-27 23:06:00,43.3,28.7,28.85,NNE,22,5.6,5.6,56,0.00,CLR,,0.00,WeatherDisplay:10.37,2013-10-28 04:06:00,
2013-10-27 23:07:00,43.3,28.7,28.85,North,0,8.1,8.1,56,0.00,CLR,,0.00,WeatherDisplay:10.37,2013-10-28 04:07:00,
2013-10-27 23:08:00,43.3,28.7,28.85,NNW,338,5.8,5.8,56,0.00,CLR,,0.00,WeatherDisplay:10.37,2013-10-28 04:08:00,
2013-10-27 23:11:00,43.5,28.4,28.85,North,0,9.2,9.2,55,0.00,CLR,,0.00,WeatherDisplay:10.37,2013-10-28 04:11:00,
2013-10-27 23:12:00,43.3,28.2,28.85,North,0,5.8,5.8,55,0.00,CLR,,0.00,WeatherDisplay:10.37,2013-10-28 04:12:00,
2013-10-27 23:13:00,43.3,28.7,28.85,North,0,5.8,5.8,56,0.00,CLR,,0.00,WeatherDisplay:10.37,2013-10-28 04:13:00,
2013-10-27 23:16:00,43.2,28.1,28.85,North,0,10.4,10.4,55,0.00,CLR,,0.00,WeatherDisplay:10.37,2013-10-28 04:16:00,
2013-10-27 23:17:00,43.0,28.3,28.85,North,0,3.5,3.8,56,0.00,CLR,,0.00,WeatherDisplay:10.37,2013-10-28 04:17:00,
2013-10-27 23:18:00,43.0,28.3,28.85,North,0,6.9,6.9,56,0.00,CLR,,0.00,WeatherDisplay:10.37,2013-10-28 04:18:00,
2013-10-27 23:19:00,43.0,28.3,28.85,North,0,8.1,8.1,56,0.00,CLR,,0.00,WeatherDisplay:10.37,2013-10-28 04:19:00,
2013-10-27 23:21:00,43.0,28.3,28.85,NNE,22,5.8,5.8,56,0.00,CLR,,0.00,WeatherDisplay:10.37,2013-10-28 04:21:00,
2013-10-27 23:22:00,43.0,28.3,28.85,North,0,4.6,4.6,56,0.00,CLR,,0.00,WeatherDisplay:10.37,2013-10-28 04:22:00,
2013-10-27 23:23:00,42.8,28.2,28.85,NNE,22,9.2,9.2,56,0.00,CLR,,0.00,WeatherDisplay:10.37,2013-10-28 04:23:00,
2013-10-27 23:24:00,42.8,28.2,28.85,North,0,5.8,5.8,56,0.00,CLR,,0.00,WeatherDisplay:10.37,2013-10-28 04:24:00,
2013-10-27 23:26:00,42.8,28.2,28.85,North,0,8.5,8.5,56,0.00,CLR,,0.00,WeatherDisplay:10.37,2013-10-28 04:26:00,
2013-10-27 23:27:00,42.8,28.2,28.85,NNE,22,8.1,8.1,56,0.00,CLR,,0.00,WeatherDisplay:10.37,2013-10-28 04:27:00,
2013-10-27 23:28:00,42.8,28.2,28.85,North,0,5.4,5.4,56,0.00,CLR,,0.00,WeatherDisplay:10.37,2013-10-28 04:28:00,
2013-10-27 23:30:00,42.6,28.4,28.85,North,0,3.5,3.5,57,0.00,CLR,,0.00,WeatherDisplay:10.37,2013-10-28 04:30:00,
2013-10-27 23:32:00,42.4,28.3,28.85,NNE,22,5.8,5.8,57,0.00,CLR,,0.00,WeatherDisplay:10.37,2013-10-28 04:32:00,
2013-10-27 23:34:00,42.3,28.1,28.85,NNW,338,4.6,4.6,57,0.00,CLR,,0.00,WeatherDisplay:10.37,2013-10-28 04:34:00,
2013-10-27 23:35:00,42.3,28.1,28.85,North,0,4.6,4.6,57,0.00,CLR,,0.00,WeatherDisplay:10.37,2013-10-28 04:35:00,
2013-10-27 23:37:00,42.3,28.1,28.85,NNE,22,5.8,5.8,57,0.00,CLR,,0.00,WeatherDisplay:10.37,2013-10-28 04:37:00,
2013-10-27 23:38:00,42.1,27.9,28.85,NNW,338,4.6,4.6,57,0.00,CLR,,0.00,WeatherDisplay:10.37,2013-10-28 04:38:00,
2013-10-27 23:39:00,42.1,27.9,28.85,NNE,22,6.4,6.4,57,0.00,CLR,,0.00,WeatherDisplay:10.37,2013-10-28 04:39:00,
2013-10-27 23:40:00,42.1,27.9,28.82,NNW,338,6.9,6.9,57,0.00,CLR,,0.00,WeatherDisplay:10.37,2013-10-28 04:40:00,
2013-10-27 23:41:00,42.1,27.9,28.82,NNW,338,5.8,5.8,57,0.00,CLR,,0.00,WeatherDisplay:10.37,2013-10-28 04:41:00,
2013-10-27 23:42:00,42.1,27.9,28.82,NNW,338,4.6,4.6,57,0.00,CLR,,0.00,WeatherDisplay:10.37,2013-10-28 04:42:00,
2013-10-27 23:43:00,42.1,27.9,28.82,NNW,338,8.1,8.1,57,0.00,CLR,,0.00,WeatherDisplay:10.37,2013-10-28 04:43:00,
2013-10-27 23:44:00,41.9,28.2,28.82,NNW,338,8.1,8.1,58,0.00,CLR,,0.00,WeatherDisplay:10.37,2013-10-28 04:44:00,
2013-10-27 23:45:00,42.1,28.4,28.82,North,0,8.1,8.1,58,0.00,CLR,,0.00,WeatherDisplay:10.37,2013-10-28 04:45:00,
2013-10-27 23:46:00,42.1,28.4,28.82,NNW,338,8.1,8.1,58,0.00,CLR,,0.00,WeatherDisplay:10.37,2013-10-28 04:46:00,
2013-10-27 23:47:00,42.1,28.4,28.82,NNW,338,5.8,5.8,58,0.00,CLR,,0.00,WeatherDisplay:10.37,2013-10-28 04:47:00,
2013-10-27 23:48:00,41.9,28.2,28.82,NNW,338,8.1,8.1,58,0.00,CLR,,0.00,WeatherDisplay:10.37,2013-10-28 04:48:00,
2013-10-27 23:49:00,41.9,28.2,28.82,NNE,22,8.1,8.1,58,0.00,CLR,,0.00,WeatherDisplay:10.37,2013-10-28 04:49:00,
2013-10-27 23:51:00,41.7,28.0,28.82,NNW,338,8.1,8.1,58,0.00,CLR,,0.00,WeatherDisplay:10.37,2013-10-28 04:51:00,
2013-10-27 23:52:00,41.7,28.0,28.82,North,0,5.9,5.9,58,0.00,CLR,,0.00,WeatherDisplay:10.37,2013-10-28 04:52:00,
2013-10-27 23:53:00,41.7,28.0,28.82,North,0,5.8,5.8,58,0.00,CLR,,0.00,WeatherDisplay:10.37,2013-10-28 04:53:00,
2013-10-27 23:54:00,41.7,28.0,28.82,North,0,5.8,5.8,58,0.00,CLR,,0.00,WeatherDisplay:10.37,2013-10-28 04:54:00,
2013-10-27 23:57:00,41.5,27.8,28.85,NW,315,5.8,5.8,58,0.00,CLR,,0.00,WeatherDisplay:10.37,2013-10-28 04:57:00,
2013-10-27 23:58:00,41.5,28.3,28.85,NNW,338,6.2,6.2,59,0.00,CLR,,0.00,WeatherDisplay:10.37,2013-10-28 04:58:00,
2013-10-27 23:59:00,41.5,28.3,28.85,NNE,22,5.8,5.8,59,0.00,CLR,,0.00,WeatherDisplay:10.37,2013-10-28 04:59:00,